PORTS® Data Listing: 8516945 Kings Point, NY

CO-OPS RAW PORTS DATA

************************      PRELIMINARY DATA      ************************** 

     THIS RAW DATA HAS NOT BEEN SUBJECT TO THE NATIONAL OCEAN SERVICE'S        
     QUALITY CONTROL OR QUALITY ASSURANCE PROCEDURES AND DOES NOT MEET         
     THE CRITERIA AND STANDARDS OF OFFICIAL NATIONAL OCEAN SERVICE             
     DATA.  IT IS RELEASED FOR LIMITED PUBLIC USE AS PRELIMINARY DATA TO       
     BE USED ONLY WITH APPROPRIATE CAUTION.                                    

************************      PRELIMINARY DATA      ************************** 


       CD   -   Calendar date
       T    -   Time
       TZ   -   Timezone
       PW   -   Predicted water level (feet above MLLW)
       OW   -   Observed water level (feet above MLLW)
       WS   -   Wind speed (knots)
       WD   -   Wind direction (degrees true)
       WG   -   Wind gust (knots)
       AT   -   Air temperature (degrees farenheit)
       WT   -   Water temperature (degrees farenheit)
       AP   -   Air pressure (millibars)
       SA   -   Salinty (PSU - Practical Salinity Units)
       SG   -   Specific gravity
       RH   -   Relative humidity
       AG   -   Air gap (feet)
       VI   -   Visibility (nautical miles)

       ** NOTE **
       A variable that has its data fields filled with "9"s, indicates that
       data was not collected for that sample period.
       **********


STATION NAME: Kings Point (8516945)
****************************************************************************************************
    CD       T    TZ    PW     OW    WS   WD   WG    AT    WT    AP    SA    SG     RH    AG   VI
****************************************************************************************************
2019/12/10 03:30 EST    0.48   0.88    8  236    9  56.7  44.1 1008.2 -9.9 -9.999 -99.9 -99.99 -9.99
2019/12/10 03:36 EST    0.49   0.88    9  245   12  56.7  44.1 1008.2 -9.9 -9.999 -99.9 -99.99 -9.99
2019/12/10 03:42 EST    0.49   0.87   10  236   12  56.8  44.1 1008.3 -9.9 -9.999 -99.9 -99.99 -9.99
2019/12/10 03:48 EST    0.50   0.88   10  243   13  56.8  44.1 1008.1 -9.9 -9.999 -99.9 -99.99 -9.99
2019/12/10 03:54 EST    0.52   0.86    9  253   11  56.5  44.1 1008.1 -9.9 -9.999 -99.9 -99.99 -9.99
2019/12/10 04:00 EST    0.53   0.88    9  256    9  56.7  44.1 1008.3 -9.9 -9.999 -99.9 -99.99 -9.99
2019/12/10 04:06 EST    0.55   0.89    8  248   11  55.8  44.1 1008.7 -9.9 -9.999 -99.9 -99.99 -9.99
2019/12/10 04:12 EST    0.58   0.90    8  238    9  56.5  44.1 1008.5 -9.9 -9.999 -99.9 -99.99 -9.99
2019/12/10 04:18 EST    0.61   0.93    8  238    9  56.5  44.1 1008.4 -9.9 -9.999 -99.9 -99.99 -9.99
2019/12/10 04:24 EST    0.64   0.95    9  236   10  56.7  44.1 1008.2 -9.9 -9.999 -99.9 -99.99 -9.99
2019/12/10 04:30 EST    0.68   0.98   10  233   11  56.7  43.9 1008.2 -9.9 -9.999 -99.9 -99.99 -9.99
2019/12/10 04:36 EST    0.73   1.04   10  235   12  55.9  43.9 1008.1 -9.9 -9.999 -99.9 -99.99 -9.99
2019/12/10 04:42 EST    0.79   1.12   10  241   11  56.3  44.1 1008.1 -9.9 -9.999 -99.9 -99.99 -9.99
2019/12/10 04:48 EST    0.86   1.20   11  243   12  56.8  44.1 1008.1 -9.9 -9.999 -99.9 -99.99 -9.99
2019/12/10 04:54 EST    0.93   1.32   10  248   12  56.7  44.1 1008.2 -9.9 -9.999 -99.9 -99.99 -9.99
2019/12/10 05:00 EST    1.02   1.45   10  247   12  56.1  44.1 1008.3 -9.9 -9.999 -99.9 -99.99 -9.99
2019/12/10 05:06 EST    1.12   1.59   10  240   11  56.3  44.1 1008.4 -9.9 -9.999 -99.9 -99.99 -9.99
2019/12/10 05:12 EST    1.23   1.73   10  242   12  56.3  44.2 1008.4 -9.9 -9.999 -99.9 -99.99 -9.99
2019/12/10 05:18 EST    1.35   1.89    9  245   11  55.6  44.2 1008.6 -9.9 -9.999 -99.9 -99.99 -9.99
2019/12/10 05:24 EST    1.49   2.05   10  237   11  56.3  44.2 1008.6 -9.9 -9.999 -99.9 -99.99 -9.99
2019/12/10 05:30 EST    1.64   2.21    9  242   11  56.1  44.2 1008.5 -9.9 -9.999 -99.9 -99.99 -9.99
2019/12/10 05:36 EST    1.80   2.37    9  238   11  55.9  44.1 1008.5 -9.9 -9.999 -99.9 -99.99 -9.99
2019/12/10 05:42 EST    1.98   2.54   10  236   11  56.1  44.1 1008.3 -9.9 -9.999 -99.9 -99.99 -9.99
2019/12/10 05:48 EST    2.16   2.70   10  249   12  56.1  44.1 1008.5 -9.9 -9.999 -99.9 -99.99 -9.99
2019/12/10 05:54 EST    2.36   2.85   10  244   12  56.1  44.2 1008.7 -9.9 -9.999 -99.9 -99.99 -9.99
2019/12/10 06:00 EST    2.58   3.02   10  241   11  55.9  44.2 1008.7 -9.9 -9.999 -99.9 -99.99 -9.99
2019/12/10 06:06 EST    2.80   3.19    9  243   12  55.9  44.2 1008.6 -9.9 -9.999 -99.9 -99.99 -9.99
2019/12/10 06:12 EST    3.03   3.36    8  249   10  55.9  44.2 1008.6 -9.9 -9.999 -99.9 -99.99 -9.99
2019/12/10 06:18 EST    3.26   3.52    9  242   10  55.9  44.2 1008.9 -9.9 -9.999 -99.9 -99.99 -9.99
2019/12/10 06:24 EST    3.50   3.68    9  236   10  56.1  44.4 1008.8 -9.9 -9.999 -99.9 -99.99 -9.99
2019/12/10 06:30 EST    3.75   3.84    9  236   11  55.6  44.4 1008.7 -9.9 -9.999 -99.9 -99.99 -9.99
2019/12/10 06:36 EST    4.00   4.01    8  236   10  55.4  44.4 1008.6 -9.9 -9.999 -99.9 -99.99 -9.99
2019/12/10 06:42 EST    4.25   4.17    7  229    9  55.6  44.4 1008.6 -9.9 -9.999 -99.9 -99.99 -9.99
2019/12/10 06:48 EST    4.50   4.34    7  231    8  52.0  44.4 1008.7 -9.9 -9.999 -99.9 -99.99 -9.99
2019/12/10 06:54 EST    4.75   4.52    8  240    9  51.6  44.4 1008.6 -9.9 -9.999 -99.9 -99.99 -9.99
2019/12/10 07:00 EST    4.99   4.68    9  245   10  54.3  44.4 1008.8 -9.9 -9.999 -99.9 -99.99 -9.99
2019/12/10 07:06 EST    5.23   4.85    9  235   10  55.2  44.4 1008.7 -9.9 -9.999 -99.9 -99.99 -9.99
2019/12/10 07:12 EST    5.46   5.02   11  233   11  55.0  44.4 1008.5 -9.9 -9.999 -99.9 -99.99 -9.99
2019/12/10 07:18 EST    5.68   5.20    9  240   11  55.2  44.4 1008.8 -9.9 -9.999 -99.9 -99.99 -9.99
2019/12/10 07:24 EST    5.89   5.39    8  243   10  54.7  44.4 1008.9 -9.9 -9.999 -99.9 -99.99 -9.99
2019/12/10 07:30 EST    6.09   5.57    8  243    9  54.5  44.4 1008.7 -9.9 -9.999 -99.9 -99.99 -9.99
2019/12/10 07:36 EST    6.28   5.76    9  249   11  55.6  44.4 1009.0 -9.9 -9.999 -99.9 -99.99 -9.99
2019/12/10 07:42 EST    6.46   5.95    9  245   10  55.0  44.4 1009.3 -9.9 -9.999 -99.9 -99.99 -9.99
2019/12/10 07:48 EST    6.63   6.12    8  244   10  55.6  44.4 1009.3 -9.9 -9.999 -99.9 -99.99 -9.99
2019/12/10 07:54 EST    6.78   6.29    7  244   10  55.6  44.4 1009.3 -9.9 -9.999 -99.9 -99.99 -9.99
2019/12/10 08:00 EST    6.92   6.46    6  250    7  55.6  44.4 1009.2 -9.9 -9.999 -99.9 -99.99 -9.99
2019/12/10 08:06 EST    7.04   6.62    7  254    9  55.9  44.2 1009.2 -9.9 -9.999 -99.9 -99.99 -9.99
2019/12/10 08:12 EST    7.16   6.76    8  253   10  54.9  44.2 1009.4 -9.9 -9.999 -99.9 -99.99 -9.99
2019/12/10 08:18 EST    7.26   6.88    7  266   10  55.4  44.2 1009.6 -9.9 -9.999 -99.9 -99.99 -9.99
2019/12/10 08:24 EST    7.35   7.00    6  258   10  55.0  44.4 1009.6 -9.9 -9.999 -99.9 -99.99 -9.99
2019/12/10 08:30 EST    7.43   7.12    8  262   10  55.2  44.4 1009.6 -9.9 -9.999 -99.9 -99.99 -9.99
2019/12/10 08:36 EST    7.49   7.21    9  259   10  55.2  44.4 1009.6 -9.9 -9.999 -99.9 -99.99 -9.99
2019/12/10 08:42 EST    7.55   7.29   11  263   13  55.6  44.4 1009.8 -9.9 -9.999 -99.9 -99.99 -9.99
2019/12/10 08:48 EST    7.60   7.36    9  259   16  55.8  44.4 1009.9 -9.9 -9.999 -99.9 -99.99 -9.99
2019/12/10 08:54 EST    7.64   7.40   10  261   13  55.2  44.4 1009.7 -9.9 -9.999 -99.9 -99.99 -9.99
2019/12/10 09:00 EST    7.67   7.43    9  264   12  55.2  44.4 1009.6 -9.9 -9.999 -99.9 -99.99 -9.99
2019/12/10 09:06 EST    7.70   7.47   10  262   12  55.2  44.4 1010.0 -9.9 -9.999 -99.9 -99.99 -9.99
2019/12/10 09:12 EST    7.72   7.49   10  265   13  55.4  44.4 1009.8 -9.9 -9.999 -99.9 -99.99 -9.99
2019/12/10 09:18 EST    7.73   7.49   11  265   12  55.9  44.4 1010.2 -9.9 -9.999 -99.9 -99.99 -9.99
2019/12/10 09:24 EST    7.74   7.50    8  257   12  55.6  44.4 1010.3 -9.9 -9.999 -99.9 -99.99 -9.99
2019/12/10 09:30 EST    7.74   7.52    9  257   11  55.6  44.4 1010.2 -9.9 -9.999 -99.9 -99.99 -9.99
2019/12/10 09:36 EST    7.74   7.53   10  268   14  55.9  44.4 1010.1 -9.9 -9.999 -99.9 -99.99 -9.99
2019/12/10 09:42 EST    7.74   7.52    8  262   10  55.9  44.4 1010.6 -9.9 -9.999 -99.9 -99.99 -9.99
2019/12/10 09:48 EST    7.73   7.52   10  268   14  55.2  44.4 1010.5 -9.9 -9.999 -99.9 -99.99 -9.99
2019/12/10 09:54 EST    7.72   7.53   10  270   14  55.9  44.4 1010.4 -9.9 -9.999 -99.9 -99.99 -9.99
2019/12/10 10:00 EST    7.70   7.53   13  275   16  55.4  44.4 1010.5 -9.9 -9.999 -99.9 -99.99 -9.99
2019/12/10 10:06 EST    7.68   7.53   13  279   15  56.7  44.4 1010.4 -9.9 -9.999 -99.9 -99.99 -9.99
2019/12/10 10:12 EST    7.65   7.52    9  278   12  56.5  44.2 1010.5 -9.9 -9.999 -99.9 -99.99 -9.99
2019/12/10 10:18 EST    7.62   7.53   13  274   17  55.4  44.2 1010.2 -9.9 -9.999 -99.9 -99.99 -9.99
2019/12/10 10:24 EST    7.58   7.51   11  262   15  56.3  44.2 1010.2 -9.9 -9.999 -99.9 -99.99 -9.99
2019/12/10 10:30 EST    7.54   7.50   12  267   17  56.1  44.2 1010.1 -9.9 -9.999 -99.9 -99.99 -9.99
2019/12/10 10:36 EST    7.49   7.48   10  268   13  56.7  44.2 1010.0 -9.9 -9.999 -99.9 -99.99 -9.99
2019/12/10 10:42 EST    7.44   7.45   13  271   15  55.6  44.2 1010.0 -9.9 -9.999 -99.9 -99.99 -9.99
2019/12/10 10:48 EST    7.37   7.41   11  269   15  56.1  44.2 1010.1 -9.9 -9.999 -99.9 -99.99 -9.99
2019/12/10 10:54 EST    7.30   7.35   11  270   13  55.6  44.2 1010.0 -9.9 -9.999 -99.9 -99.99 -9.99
2019/12/10 11:00 EST    7.22   7.27   11  279   12  55.6  44.2 1009.9 -9.9 -9.999 -99.9 -99.99 -9.99
2019/12/10 11:06 EST    7.13   7.19    9  273   11  56.3  44.1 1009.4 -9.9 -9.999 -99.9 -99.99 -9.99
2019/12/10 11:12 EST    7.04   7.09   10  280   12  55.0  44.1 1009.5 -9.9 -9.999 -99.9 -99.99 -9.99
2019/12/10 11:18 EST    6.93   6.97   10  281   11  55.9  44.1 1009.5 -9.9 -9.999 -99.9 -99.99 -9.99
2019/12/10 11:24 EST    6.81   6.85   10  288   11  55.0  44.1 1009.6 -9.9 -9.999 -99.9 -99.99 -9.99
2019/12/10 11:30 EST    6.68   6.72   10  292   12  54.5  44.1 1009.7 -9.9 -9.999 -99.9 -99.99 -9.99
2019/12/10 11:36 EST    6.55   6.56   10  292   12  54.1  44.1 1009.6 -9.9 -9.999 -99.9 -99.99 -9.99
2019/12/10 11:42 EST    6.40   6.39   10  291   12  54.7  44.1 1009.6 -9.9 -9.999 -99.9 -99.99 -9.99
2019/12/10 11:48 EST    6.24   6.21   13  287   18  54.5  44.1 1009.3 -9.9 -9.999 -99.9 -99.99 -9.99
2019/12/10 11:54 EST    6.07   6.02   13  284   16  54.9  44.1 1009.4 -9.9 -9.999 -99.9 -99.99 -9.99
2019/12/10 12:00 EST    5.89   5.81   12  285   20  54.7  44.1 1009.6 -9.9 -9.999 -99.9 -99.99 -9.99
2019/12/10 12:06 EST    5.71   5.59   13  284   16  55.8  44.2 1009.4 -9.9 -9.999 -99.9 -99.99 -9.99
2019/12/10 12:12 EST    5.51   5.37   14  286   17  55.8  44.8 1009.3 -9.9 -9.999 -99.9 -99.99 -9.99
2019/12/10 12:18 EST    5.31   5.14   13  290   20  55.4  44.6 1009.5 -9.9 -9.999 -99.9 -99.99 -9.99
2019/12/10 12:24 EST    5.10   4.91   13  285   18  55.4  44.8 1009.5 -9.9 -9.999 -99.9 -99.99 -9.99
2019/12/10 12:30 EST    4.89   4.70   15  286   19  55.6  44.8 1009.2 -9.9 -9.999 -99.9 -99.99 -9.99
2019/12/10 12:36 EST    4.66   4.49   14  287   18  55.2  44.8 1009.4 -9.9 -9.999 -99.9 -99.99 -9.99
2019/12/10 12:42 EST    4.44   4.27   14  287   18  54.1  44.8 1009.8 -9.9 -9.999 -99.9 -99.99 -9.99
2019/12/10 12:48 EST    4.21   4.06   10  275   15  53.8  44.8 1010.1 -9.9 -9.999 -99.9 -99.99 -9.99
2019/12/10 12:54 EST    3.98   3.84   14  274   15  54.0  44.8 1009.9 -9.9 -9.999 -99.9 -99.99 -9.99
2019/12/10 13:00 EST    3.75   3.66   10  263   15  54.9  44.8 1009.5 -9.9 -9.999 -99.9 -99.99 -9.99
2019/12/10 13:06 EST    3.52   3.41   10  267   13  54.1  44.8 1009.3 -9.9 -9.999 -99.9 -99.99 -9.99
2019/12/10 13:12 EST    3.29   3.21    8  269   12  54.5  44.8 1009.4 -9.9 -9.999 -99.9 -99.99 -9.99
2019/12/10 13:18 EST    3.06   3.01    9  265   11  53.6  44.8 1009.4 -9.9 -9.999 -99.9 -99.99 -9.99
2019/12/10 13:24 EST    2.83   2.81   10  256   11  53.2  44.8 1009.5 -9.9 -9.999 -99.9 -99.99 -9.99
2019/12/10 13:30 EST    2.61   2.60   12  257   13  53.8  44.8 1009.7 -9.9 -9.999 -99.9 -99.99 -9.99
2019/12/10 13:36 EST    2.40   2.41   11  255   15  54.1  44.8 1009.7 -9.9 -9.999 -99.9 -99.99 -9.99
2019/12/10 13:42 EST    2.19   2.23   11  257   13  54.3  44.6 1009.6 -9.9 -9.999 -99.9 -99.99 -9.99
2019/12/10 13:48 EST    1.99   2.03    9  250   12  54.7  44.6 1009.6 -9.9 -9.999 -99.9 -99.99 -9.99
2019/12/10 13:54 EST    1.80   1.85   10  238   12  54.9  44.8 1009.3 -9.9 -9.999 -99.9 -99.99 -9.99
2019/12/10 14:00 EST    1.62   1.66   10  243   13  54.9  44.8 1009.3 -9.9 -9.999 -99.9 -99.99 -9.99
2019/12/10 14:06 EST    1.45   1.49   10  243   13  55.4  44.8 1009.3 -9.9 -9.999 -99.9 -99.99 -9.99
2019/12/10 14:12 EST    1.29   1.32   11  239   13  54.9  44.8 1009.6 -9.9 -9.999 -99.9 -99.99 -9.99
2019/12/10 14:18 EST    1.14   1.15    9  248   12  55.4  44.8 1009.5 -9.9 -9.999 -99.9 -99.99 -9.99
2019/12/10 14:24 EST    1.00   0.99   11  250   13  54.7  44.8 1009.7 -9.9 -9.999 -99.9 -99.99 -9.99
2019/12/10 14:30 EST    0.86   0.86    8  248   12  55.4  44.8 1009.8 -9.9 -9.999 -99.9 -99.99 -9.99
2019/12/10 14:36 EST    0.74   0.71   10  255   11  55.2  44.8 1009.7 -9.9 -9.999 -99.9 -99.99 -9.99
2019/12/10 14:42 EST    0.64   0.58    9  252   13  55.2  45.1 1009.6 -9.9 -9.999 -99.9 -99.99 -9.99
2019/12/10 14:48 EST    0.54   0.48   11  257   12  55.2  45.1 1009.6 -9.9 -9.999 -99.9 -99.99 -9.99
2019/12/10 14:54 EST    0.45   0.38    9  257   11  55.4  45.0 1009.6 -9.9 -9.999 -99.9 -99.99 -9.99
2019/12/10 15:00 EST    0.36   0.30   10  262   12  55.8  45.3 1009.5 -9.9 -9.999 -99.9 -99.99 -9.99
2019/12/10 15:06 EST    0.29   0.24    9  273   12  55.0  45.5 1009.8 -9.9 -9.999 -99.9 -99.99 -9.99
2019/12/10 15:12 EST    0.23   0.19    9  272   13  55.2  44.8 1010.0 -9.9 -9.999 -99.9 -99.99 -9.99
2019/12/10 15:18 EST    0.17   0.14    9  278   11  55.8  44.8 1010.0 -9.9 -9.999 -99.9 -99.99 -9.99
2019/12/10 15:24 EST    0.12   0.13    7  273   12  54.9  44.8 1010.1 -9.9 -9.999 -99.9 -99.99 -9.99
2019/12/10 15:30 EST    0.07   0.10    8  289   10  54.5  45.0 1010.1 -9.9 -9.999 -99.9 -99.99 -9.99
2019/12/10 15:36 EST    0.03   0.08   10  284   13  54.3  44.8 1010.2 -9.9 -9.999 -99.9 -99.99 -9.99
2019/12/10 15:42 EST   -0.01   0.07    9  269   10  55.4  45.3 1010.2 -9.9 -9.999 -99.9 -99.99 -9.99
2019/12/10 15:48 EST   -0.04   0.06    9  285   11  55.4  45.3 1010.4 -9.9 -9.999 -99.9 -99.99 -9.99
2019/12/10 15:54 EST   -0.07   0.06    9  278   10  54.5  45.1 1010.7 -9.9 -9.999 -99.9 -99.99 -9.99
2019/12/10 16:00 EST   -0.09   0.04    7  273   10  55.2  44.8 1011.0 -9.9 -9.999 -99.9 -99.99 -9.99
2019/12/10 16:06 EST   -0.11   0.02   11  273   12  55.2  44.8 1010.9 -9.9 -9.999 -99.9 -99.99 -9.99
2019/12/10 16:12 EST   -0.13   0.00    9  277   12  55.4  44.8 1011.3 -9.9 -9.999 -99.9 -99.99 -9.99
2019/12/10 16:18 EST   -0.15  -0.01   10  276   12  55.0  44.8 1011.7 -9.9 -9.999 -99.9 -99.99 -9.99
2019/12/10 16:24 EST   -0.16  -0.04   10  281   15  55.4  44.8 1011.9 -9.9 -9.999 -99.9 -99.99 -9.99
2019/12/10 16:30 EST   -0.16  -0.07   10  291   13  55.2  44.8 1012.1 -9.9 -9.999 -99.9 -99.99 -9.99
2019/12/10 16:36 EST   -0.16  -0.07   10  293   14  54.5  45.0 1012.3 -9.9 -9.999 -99.9 -99.99 -9.99
2019/12/10 16:42 EST   -0.16  -0.07   11  299   14  54.3  45.0 1012.5 -9.9 -9.999 -99.9 -99.99 -9.99
2019/12/10 16:48 EST   -0.15  -0.09    8  298   11  54.0  45.0 1012.6 -9.9 -9.999 -99.9 -99.99 -9.99
2019/12/10 16:54 EST   -0.13  -0.10   11  293   17  53.8  45.0 1012.5 -9.9 -9.999 -99.9 -99.99 -9.99
2019/12/10 17:00 EST   -0.11  -0.08   12  294   16  54.0  45.0 1012.4 -9.9 -9.999 -99.9 -99.99 -9.99
2019/12/10 17:06 EST   -0.07  -0.07   10  272   13  54.5  45.0 1012.1 -9.9 -9.999 -99.9 -99.99 -9.99
2019/12/10 17:12 EST   -0.03  -0.03    9  287   12  54.1  45.0 1012.1 -9.9 -9.999 -99.9 -99.99 -9.99
2019/12/10 17:18 EST    0.03   0.00   11  296   15  54.1  44.8 1012.1 -9.9 -9.999 -99.9 -99.99 -9.99
2019/12/10 17:24 EST    0.10   0.04   12  288   13  54.3  44.8 1012.3 -9.9 -9.999 -99.9 -99.99 -9.99
2019/12/10 17:30 EST    0.18   0.10   10  292   13  54.1  44.8 1012.5 -9.9 -9.999 -99.9 -99.99 -9.99
2019/12/10 17:36 EST    0.27   0.15   13  294   15  53.6  44.8 1012.5 -9.9 -9.999 -99.9 -99.99 -9.99
2019/12/10 17:42 EST    0.38   0.25   12  301   15  54.1  44.8 1012.7 -9.9 -9.999 -99.9 -99.99 -9.99
2019/12/10 17:48 EST    0.50   0.35    9  304   14  55.0  44.6 1012.8 -9.9 -9.999 -99.9 -99.99 -9.99
2019/12/10 17:54 EST    0.63   0.45   11  302   14  54.3  44.6 1013.1 -9.9 -9.999 -99.9 -99.99 -9.99
2019/12/10 18:00 EST    0.78   0.57   10  304   12  54.5  44.6 1013.3 -9.9 -9.999 -99.9 -99.99 -9.99
2019/12/10 18:06 EST    0.94   0.72   13  311   16  54.1  44.6 1013.6 -9.9 -9.999 -99.9 -99.99 -9.99
2019/12/10 18:12 EST    1.12   0.88   11  312   14  53.4  44.6 1014.0 -9.9 -9.999 -99.9 -99.99 -9.99
2019/12/10 18:18 EST    1.31   1.04    8  309   12  53.1  44.6 1014.3 -9.9 -9.999 -99.9 -99.99 -9.99
2019/12/10 18:24 EST    1.51   1.22    8  297   11  53.4  44.6 1014.0 -9.9 -9.999 -99.9 -99.99 -9.99
2019/12/10 18:30 EST    1.73   1.42    8  302   10  53.2  44.6 1014.1 -9.9 -9.999 -99.9 -99.99 -9.99
2019/12/10 18:36 EST    1.95   1.65    7  303   10  52.7  44.8 1014.1 -9.9 -9.999 -99.9 -99.99 -9.99
2019/12/10 18:42 EST    2.19   1.88    7  303   10  52.7  44.8 1014.3 -9.9 -9.999 -99.9 -99.99 -9.99
2019/12/10 18:48 EST    2.43   2.11    7  310    9  52.5  44.8 1014.3 -9.9 -9.999 -99.9 -99.99 -9.99
2019/12/10 18:54 EST    2.67   2.35   12  327   15  52.5  44.8 1014.2 -9.9 -9.999 -99.9 -99.99 -9.99
2019/12/10 19:00 EST    2.92   2.59   12  329   15  53.2  44.8 1014.5 -9.9 -9.999 -99.9 -99.99 -9.99
2019/12/10 19:06 EST    3.17   2.84   10  325   16  53.4  44.8 1014.6 -9.9 -9.999 -99.9 -99.99 -9.99
2019/12/10 19:12 EST    3.43   3.09   11  320   14  52.9  44.8 1014.6 -9.9 -9.999 -99.9 -99.99 -9.99
2019/12/10 19:18 EST    3.68   3.32   10  326   12  52.9  44.8 1014.7 -9.9 -9.999 -99.9 -99.99 -9.99
2019/12/10 19:24 EST    3.93   3.56    9  342   11  52.5  44.8 1014.7 -9.9 -9.999 -99.9 -99.99 -9.99
2019/12/10 19:30 EST    4.17   3.81    8    3   10  51.4  44.8 1015.0 -9.9 -9.999 -99.9 -99.99 -9.99
2019/12/10 19:36 EST    4.41   4.04   13    3   16  50.5  44.8 1015.1 -9.9 -9.999 -99.9 -99.99 -9.99
2019/12/10 19:42 EST    4.64   4.28   13    3   16  51.1  44.8 1014.8 -9.9 -9.999 -99.9 -99.99 -9.99
2019/12/10 19:48 EST    4.86   4.52   12   12   13  51.4  44.8 1014.7 -9.9 -9.999 -99.9 -99.99 -9.99
2019/12/10 19:54 EST    5.07   4.76   12    6   14  50.2  44.8 1014.7 -9.9 -9.999 -99.9 -99.99 -9.99
2019/12/10 20:00 EST    5.28   5.00    8   10   13  50.5  44.8 1014.8 -9.9 -9.999 -99.9 -99.99 -9.99
2019/12/10 20:06 EST    5.46   5.22   10   10   11  49.3  44.8 1015.3 -9.9 -9.999 -99.9 -99.99 -9.99
2019/12/10 20:12 EST    5.64   5.43   13    8   15  49.3  45.0 1015.6 -9.9 -9.999 -99.9 -99.99 -9.99
2019/12/10 20:18 EST    5.81   5.62   13    3   15  49.5  44.8 1015.8 -9.9 -9.999 -99.9 -99.99 -9.99
2019/12/10 20:24 EST    5.96   5.80   14    3   15  49.3  44.8 1016.0 -9.9 -9.999 -99.9 -99.99 -9.99
2019/12/10 20:30 EST    6.10   5.96   17  355   22  49.3  44.8 1016.2 -9.9 -9.999 -99.9 -99.99 -9.99
2019/12/10 20:36 EST    6.23   6.10   17  355   22  49.6  44.8 1016.0 -9.9 -9.999 -99.9 -99.99 -9.99
2019/12/10 20:42 EST    6.34   6.25   15  354   22  48.7  44.8 1016.4 -9.9 -9.999 -99.9 -99.99 -9.99
2019/12/10 20:48 EST    6.44   6.37   17  349   24  48.0  44.8 1016.7 -9.9 -9.999 -99.9 -99.99 -9.99
2019/12/10 20:54 EST    6.54   6.46   15  351   19  48.0  44.8 1016.9 -9.9 -9.999 -99.9 -99.99 -9.99
2019/12/10 21:00 EST    6.62   6.56   12  359   17  47.8  44.8 1016.9 -9.9 -9.999 -99.9 -99.99 -9.99
2019/12/10 21:06 EST    6.69   6.63   17  352   22  47.3  44.8 1016.6 -9.9 -9.999 -99.9 -99.99 -9.99
2019/12/10 21:12 EST    6.75   6.70   19  352   22  46.6  44.8 1017.0 -9.9 -9.999 -99.9 -99.99 -9.99
2019/12/10 21:18 EST    6.80   6.73   18  348   25  46.9  44.8 1017.0 -9.9 -9.999 -99.9 -99.99 -9.99
2019/12/10 21:24 EST    6.85   6.75   18  345   22  46.6  44.8 1017.3 -9.9 -9.999 -99.9 -99.99 -9.99
2019/12/10 21:30 EST    6.89   6.74   17  341   22  45.9  44.8 1017.9 -9.9 -9.999 -99.9 -99.99 -9.99
2019/12/10 21:36 EST    6.92   6.74   18  346   22  45.9  44.8 1017.9 -9.9 -9.999 -99.9 -99.99 -9.99
2019/12/10 21:42 EST    6.94   6.72   16  334   18  45.3  44.8 1017.9 -9.9 -9.999 -99.9 -99.99 -9.99
2019/12/10 21:48 EST    6.96   6.72   13  326   17  45.7  44.8 1017.8 -9.9 -9.999 -99.9 -99.99 -9.99
2019/12/10 21:54 EST    6.98   6.69   17  331   21  45.7  44.8 1017.8 -9.9 -9.999 -99.9 -99.99 -9.99
2019/12/10 22:00 EST    6.99   6.65   17  323   19  45.9  44.8 1018.1 -9.9 -9.999 -99.9 -99.99 -9.99
2019/12/10 22:06 EST    7.00   6.63   16  331   22  45.9  44.8 1018.0 -9.9 -9.999 -99.9 -99.99 -9.99
2019/12/10 22:12 EST    7.00   6.59   17  332   22  45.7  44.8 1017.9 -9.9 -9.999 -99.9 -99.99 -9.99
2019/12/10 22:18 EST    7.00   6.55   16  339   20  45.3  44.8 1018.3 -9.9 -9.999 -99.9 -99.99 -9.99
2019/12/10 22:24 EST    6.99   6.53   15  333   23  45.3  44.8 1018.3 -9.9 -9.999 -99.9 -99.99 -9.99
2019/12/10 22:30 EST    6.98   6.49   14  333   17  44.2  44.8 1018.4 -9.9 -9.999 -99.9 -99.99 -9.99
2019/12/10 22:36 EST    6.96   6.47   13  336   18  44.2  44.8 1018.4 -9.9 -9.999 -99.9 -99.99 -9.99
2019/12/10 22:42 EST    6.94   6.45   13  332   17  44.1  44.8 1018.7 -9.9 -9.999 -99.9 -99.99 -9.99
2019/12/10 22:48 EST    6.92   6.42   12  323   15  43.5  44.6 1018.8 -9.9 -9.999 -99.9 -99.99 -9.99
2019/12/10 22:54 EST    6.88   6.38   13  324   16  43.3  44.6 1018.8 -9.9 -9.999 -99.9 -99.99 -9.99
2019/12/10 23:00 EST    6.84   6.34   13  324   16  43.3  44.6 1018.8 -9.9 -9.999 -99.9 -99.99 -9.99
2019/12/10 23:06 EST    6.80   6.30   18  352   21  43.0  44.6 1019.2 -9.9 -9.999 -99.9 -99.99 -9.99
2019/12/10 23:12 EST    6.74   6.24   18  357   25  43.0  44.6 1019.2 -9.9 -9.999 -99.9 -99.99 -9.99
2019/12/10 23:18 EST    6.68   6.18   20  354   23  42.3  44.6 1019.2 -9.9 -9.999 -99.9 -99.99 -9.99
2019/12/10 23:24 EST    6.61 -99.99 -999 -999 -999 -99.9 -99.9 -999.9 -9.9 -9.999 -99.9 -99.99 -9.99
2019/12/10 23:30 EST    6.53 -99.99 -999 -999 -999 -99.9 -99.9 -999.9 -9.9 -9.999 -99.9 -99.99 -9.99
2019/12/10 23:36 EST    6.44 -99.99 -999 -999 -999 -99.9 -99.9 -999.9 -9.9 -9.999 -99.9 -99.99 -9.99
2019/12/10 23:42 EST    6.35   5.81   16  344   18  40.3  44.6 1018.6 -9.9 -9.999 -99.9 -99.99 -9.99
2019/12/10 23:48 EST    6.24   5.72   13  346   15  40.3  44.6 1018.8 -9.9 -9.999 -99.9 -99.99 -9.99
2019/12/10 23:54 EST    6.12   5.62   10  357   14  40.3  44.6 1018.9 -9.9 -9.999 -99.9 -99.99 -9.99
2019/12/11 00:00 EST    5.99   5.51   11  356   14  40.6  44.6 1018.8 -9.9 -9.999 -99.9 -99.99 -9.99
2019/12/11 00:06 EST    5.86   5.39   12    4   14  40.5  44.6 1018.3 -9.9 -9.999 -99.9 -99.99 -9.99
2019/12/11 00:12 EST    5.71   5.30   11  357   14  40.3  44.6 1018.9 -9.9 -9.999 -99.9 -99.99 -9.99
2019/12/11 00:18 EST    5.55   5.17   12    4   15  40.6  44.6 1019.2 -9.9 -9.999 -99.9 -99.99 -9.99
2019/12/11 00:24 EST    5.39   5.03   10    5   14  40.3  44.6 1018.9 -9.9 -9.999 -99.9 -99.99 -9.99
2019/12/11 00:30 EST    5.21   4.90   11    2   14  40.3  44.6 1018.8 -9.9 -9.999 -99.9 -99.99 -9.99
2019/12/11 00:36 EST    5.03   4.74   12  359   16  39.9  44.6 1019.2 -9.9 -9.999 -99.9 -99.99 -9.99
2019/12/11 00:42 EST    4.84   4.56   12  353   14  39.7  44.6 1019.7 -9.9 -9.999 -99.9 -99.99 -9.99
2019/12/11 00:48 EST    4.64   4.39   12  357   14  39.7  44.6 1019.7 -9.9 -9.999 -99.9 -99.99 -9.99
2019/12/11 00:54 EST    4.44   4.19   13  359   15  39.7  44.6 1019.8 -9.9 -9.999 -99.9 -99.99 -9.99
2019/12/11 01:00 EST    4.23   4.00   12    7   15  39.6  44.6 1019.8 -9.9 -9.999 -99.9 -99.99 -9.99
2019/12/11 01:06 EST    4.01   3.81   11   14   13  39.2  44.6 1019.3 -9.9 -9.999 -99.9 -99.99 -9.99
2019/12/11 01:12 EST    3.80   3.62   11   10   14  39.2  44.6 1019.3 -9.9 -9.999 -99.9 -99.99 -9.99
2019/12/11 01:18 EST    3.58   3.42   10   11   12  38.8  44.6 1019.8 -9.9 -9.999 -99.9 -99.99 -9.99
2019/12/11 01:24 EST    3.37   3.21   11   17   13  39.0  44.6 1020.0 -9.9 -9.999 -99.9 -99.99 -9.99
2019/12/11 01:30 EST    3.15   3.02   12   22   13  38.8  44.6 1019.8 -9.9 -9.999 -99.9 -99.99 -9.99
2019/12/11 01:36 EST    2.93   2.81   12   14   15  38.5  44.4 1020.2 -9.9 -9.999 -99.9 -99.99 -9.99
2019/12/11 01:42 EST    2.72   2.62   11   23   12  38.3  44.4 1019.9 -9.9 -9.999 -99.9 -99.99 -9.99
2019/12/11 01:48 EST    2.52   2.43   11   15   14  37.6  44.6 1020.2 -9.9 -9.999 -99.9 -99.99 -9.99
2019/12/11 01:54 EST    2.31   2.24   11   17   15  37.8  44.4 1020.7 -9.9 -9.999 -99.9 -99.99 -9.99
2019/12/11 02:00 EST    2.12   2.04    9   26   13  37.2  44.4 1020.8 -9.9 -9.999 -99.9 -99.99 -9.99
2019/12/11 02:06 EST    1.93   1.86    8   25   10  36.3  44.4 1020.8 -9.9 -9.999 -99.9 -99.99 -9.99
2019/12/11 02:12 EST    1.75   1.69    7   24   10  36.3  44.4 1020.9 -9.9 -9.999 -99.9 -99.99 -9.99
2019/12/11 02:18 EST    1.58   1.53    7   27    9  36.5  44.4 1021.0 -9.9 -9.999 -99.9 -99.99 -9.99
2019/12/11 02:24 EST    1.42   1.36    6    3    8  36.5  44.4 1021.0 -9.9 -9.999 -99.9 -99.99 -9.99
2019/12/11 02:30 EST    1.27   1.20    8    4   10  36.9  44.4 1021.2 -9.9 -9.999 -99.9 -99.99 -9.99
2019/12/11 02:36 EST    1.13   1.06    9  360   10  36.7  44.4 1021.0 -9.9 -9.999 -99.9 -99.99 -9.99
2019/12/11 02:42 EST    1.00   0.92   10    2   11  36.7  44.4 1021.3 -9.9 -9.999 -99.9 -99.99 -9.99
2019/12/11 02:48 EST    0.89   0.78   10    4   12  36.7  44.4 1021.4 -9.9 -9.999 -99.9 -99.99 -9.99
2019/12/11 02:54 EST    0.78   0.66   10    4   12  36.7  44.4 1021.4 -9.9 -9.999 -99.9 -99.99 -9.99
2019/12/11 03:00 EST    0.69   0.55   11  359   13  36.7  44.4 1021.7 -9.9 -9.999 -99.9 -99.99 -9.99
2019/12/11 03:06 EST    0.61   0.44   13    2   15  36.7  44.4 1022.1 -9.9 -9.999 -99.9 -99.99 -9.99
2019/12/11 03:12 EST    0.54   0.33   12   11   15  36.7  44.4 1022.4 -9.9 -9.999 -99.9 -99.99 -9.99
2019/12/11 03:18 EST    0.48   0.24   11   11   14  36.5  44.4 1021.5 -9.9 -9.999 -99.9 -99.99 -9.99
2019/12/11 03:24 EST    0.43   0.18   11    7   14  36.1  44.4 1021.5 -9.9 -9.999 -99.9 -99.99 -9.99
2019/12/11 03:30 EST    0.39   0.14    9    9   12  36.1  44.4 1021.7 -9.9 -9.999 -99.9 -99.99 -9.99
2019/12/11 03:36 EST    0.36   0.10   10   15   12  36.0  44.4 1022.0 -9.9 -9.999 -99.9 -99.99 -9.99
2019/12/11 03:42 EST    0.34   0.08   10   18   11  35.8  44.4 1022.2 -9.9 -9.999 -99.9 -99.99 -9.99
2019/12/11 03:48 EST    0.32   0.07   10   10   11  35.4  44.4 1022.3 -9.9 -9.999 -99.9 -99.99 -9.99
2019/12/11 03:54 EST    0.32   0.08   11   12   12  35.2  44.2 1023.1 -9.9 -9.999 -99.9 -99.99 -9.99
2019/12/11 04:00 EST    0.31   0.05   10   31   13  35.1  44.4 1022.4 -9.9 -9.999 -99.9 -99.99 -9.99
2019/12/11 04:06 EST    0.32   0.05   13   40   15  35.2  44.4 1022.5 -9.9 -9.999 -99.9 -99.99 -9.99
2019/12/11 04:12 EST    0.32   0.05   11   46   14  34.5  44.4 1022.5 -9.9 -9.999 -99.9 -99.99 -9.99
2019/12/11 04:18 EST    0.34   0.04    6   74   15  34.0  44.4 1022.7 -9.9 -9.999 -99.9 -99.99 -9.99
2019/12/11 04:24 EST    0.35   0.05    9   67   11  33.8  44.4 1022.6 -9.9 -9.999 -99.9 -99.99 -9.99
2019/12/11 04:30 EST    0.37   0.06    7   73   12  33.8  44.4 1022.6 -9.9 -9.999 -99.9 -99.99 -9.99
2019/12/11 04:36 EST    0.39   0.08    6   69   10  33.6  44.2 1022.4 -9.9 -9.999 -99.9 -99.99 -9.99
2019/12/11 04:42 EST    0.42   0.08    7   65    9  33.8  44.2 1022.3 -9.9 -9.999 -99.9 -99.99 -9.99
2019/12/11 04:48 EST    0.45   0.12    4   75    9  33.6  44.2 1022.6 -9.9 -9.999 -99.9 -99.99 -9.99
2019/12/11 04:54 EST    0.49   0.13    5   75    9  33.4  44.2 1023.0 -9.9 -9.999 -99.9 -99.99 -9.99
2019/12/11 05:00 EST    0.53   0.15    4   80    7  33.6  44.2 1022.5 -9.9 -9.999 -99.9 -99.99 -9.99
2019/12/11 05:06 EST    0.57   0.18    7   81   11  32.9  44.2 1022.8 -9.9 -9.999 -99.9 -99.99 -9.99
2019/12/11 05:12 EST    0.62   0.23    7   81   10  32.9  44.2 1022.8 -9.9 -9.999 -99.9 -99.99 -9.99
2019/12/11 05:18 EST    0.68   0.30    9   74   16  32.7  44.2 1022.7 -9.9 -9.999 -99.9 -99.99 -9.99
2019/12/11 05:24 EST    0.75   0.38    7   75   12  32.9  44.2 1022.7 -9.9 -9.999 -99.9 -99.99 -9.99
2019/12/11 05:30 EST    0.82   0.50    9   74   12  32.7  44.2 1023.0 -9.9 -9.999 -99.9 -99.99 -9.99
2019/12/11 05:36 EST    0.90   0.62    9   67   12  32.7  44.2 1023.1 -9.9 -9.999 -99.9 -99.99 -9.99
2019/12/11 05:42 EST    0.99   0.76   10   67   13  32.7  44.2 1023.5 -9.9 -9.999 -99.9 -99.99 -9.99
2019/12/11 05:48 EST    1.10   0.92    9   57   14  32.7  44.2 1023.3 -9.9 -9.999 -99.9 -99.99 -9.99
2019/12/11 05:54 EST    1.21   1.11    6   73   12  33.1  44.1 1023.8 -9.9 -9.999 -99.9 -99.99 -9.99
2019/12/11 06:00 EST    1.34   1.32    7   72   12  33.4  44.1 1023.3 -9.9 -9.999 -99.9 -99.99 -9.99
2019/12/11 06:06 EST    1.48   1.53    5   79   10  33.1  44.1 1023.5 -9.9 -9.999 -99.9 -99.99 -9.99
2019/12/11 06:12 EST    1.63   1.75    7   76   11  32.7  44.1 1023.7 -9.9 -9.999 -99.9 -99.99 -9.99
2019/12/11 06:18 EST    1.79   1.97    5   77   12  32.5  44.1 1023.8 -9.9 -9.999 -99.9 -99.99 -9.99
2019/12/11 06:24 EST    1.97   2.20    6   74   11  32.5  44.1 1024.0 -9.9 -9.999 -99.9 -99.99 -9.99
2019/12/11 06:30 EST    2.16   2.44    7   80   11  33.1  44.2 1024.2 -9.9 -9.999 -99.9 -99.99 -9.99
2019/12/11 06:36 EST    2.36   2.69    6   84   10  33.1  44.2 1024.8 -9.9 -9.999 -99.9 -99.99 -9.99
2019/12/11 06:42 EST    2.57   2.92    8   79   12  32.5  44.2 1024.9 -9.9 -9.999 -99.9 -99.99 -9.99
2019/12/11 06:48 EST    2.80   3.17    8   78   11  32.4  44.2 1025.0 -9.9 -9.999 -99.9 -99.99 -9.99
2019/12/11 06:54 EST    3.03   3.43    6   97   11  32.5  44.1 1025.0 -9.9 -9.999 -99.9 -99.99 -9.99
2019/12/11 07:00 EST    3.27   3.67    6   92    9  32.4  44.2 1024.9 -9.9 -9.999 -99.9 -99.99 -9.99
2019/12/11 07:06 EST    3.52   3.92    6   80    8  32.4  44.2 1024.9 -9.9 -9.999 -99.9 -99.99 -9.99
2019/12/11 07:12 EST    3.78   4.16    6   79    9  32.5  44.2 1025.2 -9.9 -9.999 -99.9 -99.99 -9.99
2019/12/11 07:18 EST    4.04   4.38    6   72   10  32.9  44.2 1025.4 -9.9 -9.999 -99.9 -99.99 -9.99
2019/12/11 07:24 EST    4.30   4.60    4   80    8  32.9  44.2 1025.3 -9.9 -9.999 -99.9 -99.99 -9.99
2019/12/11 07:30 EST    4.56   4.82    4   78    7  32.9  44.2 1025.7 -9.9 -9.999 -99.9 -99.99 -9.99
2019/12/11 07:36 EST    4.82   5.01    5   85   10  32.9  44.2 1025.5 -9.9 -9.999 -99.9 -99.99 -9.99
2019/12/11 07:42 EST    5.08   5.20    5   62    8  33.1  44.2 1025.3 -9.9 -9.999 -99.9 -99.99 -9.99
2019/12/11 07:48 EST    5.33   5.39    8   65   10  33.1  44.2 1025.6 -9.9 -9.999 -99.9 -99.99 -9.99
2019/12/11 07:54 EST    5.57   5.56    8   53   11  33.3  44.2 1025.9 -9.9 -9.999 -99.9 -99.99 -9.99
2019/12/11 08:00 EST    5.81   5.72    6   62   10  33.4  44.2 1026.0 -9.9 -9.999 -99.9 -99.99 -9.99
2019/12/11 08:06 EST    6.04   5.87    5   79   10  33.4  44.2 1025.8 -9.9 -9.999 -99.9 -99.99 -9.99
2019/12/11 08:12 EST    6.26   6.03    5   74    9  33.3  44.2 1025.9 -9.9 -9.999 -99.9 -99.99 -9.99
2019/12/11 08:18 EST    6.47   6.18    4   72    8  33.1  44.1 1026.1 -9.9 -9.999 -99.9 -99.99 -9.99
2019/12/11 08:24 EST    6.66   6.32    4   72    8  33.1  44.1 1026.3 -9.9 -9.999 -99.9 -99.99 -9.99
2019/12/11 08:30 EST    6.84   6.45    4   71    7  32.7  44.1 1026.3 -9.9 -9.999 -99.9 -99.99 -9.99
2019/12/11 08:36 EST    7.01   6.59    6   80    8  32.9  44.1 1026.5 -9.9 -9.999 -99.9 -99.99 -9.99
2019/12/11 08:42 EST    7.16   6.70    4   63    7  32.7  44.2 1026.4 -9.9 -9.999 -99.9 -99.99 -9.99
2019/12/11 08:48 EST    7.30   6.83    4   81    6  32.7  44.2 1026.5 -9.9 -9.999 -99.9 -99.99 -9.99
2019/12/11 08:54 EST    7.42   6.95    3   75    6  32.7  44.2 1026.7 -9.9 -9.999 -99.9 -99.99 -9.99
2019/12/11 09:00 EST    7.53   7.05    7   35    8  32.4  44.1 1027.0 -9.9 -9.999 -99.9 -99.99 -9.99
2019/12/11 09:06 EST    7.62   7.14    6   38    8  32.0  44.2 1027.0 -9.9 -9.999 -99.9 -99.99 -9.99
2019/12/11 09:12 EST    7.71   7.22    4   30    7  31.6  44.2 1026.9 -9.9 -9.999 -99.9 -99.99 -9.99
2019/12/11 09:18 EST    7.78   7.28    2   20    5  32.0  44.2 1027.1 -9.9 -9.999 -99.9 -99.99 -9.99
2019/12/11 09:24 EST    7.83   7.35    6  354    6  32.0  44.2 1027.4 -9.9 -9.999 -99.9 -99.99 -9.99
2019/12/11 09:30 EST    7.88   7.38    5   27    9  32.2  44.4 1027.1 -9.9 -9.999 -99.9 -99.99 -9.99
2019/12/11 09:36 EST    7.91   7.42    7    4    9  32.5  44.4 1027.0 -9.9 -9.999 -99.9 -99.99 -9.99
2019/12/11 09:42 EST    7.94   7.43    6   15    8  32.2  44.4 1027.3 -9.9 -9.999 -99.9 -99.99 -9.99
2019/12/11 09:48 EST    7.96   7.45    5   30    7  32.5  44.4 1027.1 -9.9 -9.999 -99.9 -99.99 -9.99
2019/12/11 09:54 EST    7.97   7.46    4   56    6  32.5  44.4 1027.1 -9.9 -9.999 -99.9 -99.99 -9.99
2019/12/11 10:00 EST    7.97   7.47    5   30    6  32.4  44.2 1026.9 -9.9 -9.999 -99.9 -99.99 -9.99
2019/12/11 10:06 EST    7.96   7.47    5   36    6  32.5  44.2 1027.0 -9.9 -9.999 -99.9 -99.99 -9.99
2019/12/11 10:12 EST    7.95   7.47    5   51    6  32.7  44.2 1027.1 -9.9 -9.999 -99.9 -99.99 -9.99
2019/12/11 10:18 EST    7.94   7.46    4   43    6  32.9  44.2 1026.9 -9.9 -9.999 -99.9 -99.99 -9.99
2019/12/11 10:24 EST    7.92   7.46    4   53    5  33.1  44.2 1027.0 -9.9 -9.999 -99.9 -99.99 -9.99
2019/12/11 10:30 EST    7.89   7.47    4   17    6  33.4  44.2 1027.1 -9.9 -9.999 -99.9 -99.99 -9.99
2019/12/11 10:36 EST    7.86   7.47    5   40    6  33.3  44.2 1027.1 -9.9 -9.999 -99.9 -99.99 -9.99
2019/12/11 10:42 EST    7.83   7.47    6   20    8  33.3  44.2 1027.1 -9.9 -9.999 -99.9 -99.99 -9.99
2019/12/11 10:48 EST    7.79   7.45    6   37    8  33.3  44.2 1027.1 -9.9 -9.999 -99.9 -99.99 -9.99
2019/12/11 10:54 EST    7.75   7.43    5   25    8  33.4  44.2 1027.0 -9.9 -9.999 -99.9 -99.99 -9.99
2019/12/11 11:00 EST    7.70   7.42    4   42    7  33.3  44.2 1027.0 -9.9 -9.999 -99.9 -99.99 -9.99
2019/12/11 11:06 EST    7.65   7.40    5   39    6  33.4  44.2 1026.9 -9.9 -9.999 -99.9 -99.99 -9.99
2019/12/11 11:12 EST    7.60   7.36    4   24    6  33.6  44.2 1026.7 -9.9 -9.999 -99.9 -99.99 -9.99
2019/12/11 11:18 EST    7.53   7.32    3   45    5  33.3  44.2 1026.5 -9.9 -9.999 -99.9 -99.99 -9.99
2019/12/11 11:24 EST    7.47   7.27    3   30    3  33.4  44.2 1026.3 -9.9 -9.999 -99.9 -99.99 -9.99
2019/12/11 11:30 EST    7.39   7.22    3   73    4  33.6  44.2 1026.1 -9.9 -9.999 -99.9 -99.99 -9.99
2019/12/11 11:36 EST    7.31   7.16    2   71    4  33.8  44.2 1026.0 -9.9 -9.999 -99.9 -99.99 -9.99
2019/12/11 11:42 EST    7.23   7.07    2   76    3  34.2  44.2 1025.8 -9.9 -9.999 -99.9 -99.99 -9.99
2019/12/11 11:48 EST    7.13   6.99    1   38    3  34.3  44.2 1025.5 -9.9 -9.999 -99.9 -99.99 -9.99
2019/12/11 11:54 EST    7.03   6.89    1   39    3  34.0  44.2 1025.5 -9.9 -9.999 -99.9 -99.99 -9.99
2019/12/11 12:00 EST    6.91   6.78    1   16    2  34.2  44.2 1025.6 -9.9 -9.999 -99.9 -99.99 -9.99
2019/12/11 12:06 EST    6.79   6.64    1   37    3  34.2  44.1 1025.6 -9.9 -9.999 -99.9 -99.99 -9.99
2019/12/11 12:12 EST    6.66   6.48    2   78    2  34.0  44.1 1025.6 -9.9 -9.999 -99.9 -99.99 -9.99
2019/12/11 12:18 EST    6.52   6.32    1   31    4  34.3  44.1 1025.7 -9.9 -9.999 -99.9 -99.99 -9.99
2019/12/11 12:24 EST    6.38   6.14    1  332    2  34.2  44.1 1025.7 -9.9 -9.999 -99.9 -99.99 -9.99
2019/12/11 12:30 EST    6.22   5.93    2   23    3  34.3  44.1 1025.6 -9.9 -9.999 -99.9 -99.99 -9.99
2019/12/11 12:36 EST    6.05   5.71    1   34    2  34.3  44.1 1025.5 -9.9 -9.999 -99.9 -99.99 -9.99
2019/12/11 12:42 EST    5.87   5.49    1   11    2  34.7  44.1 1025.4 -9.9 -9.999 -99.9 -99.99 -9.99
2019/12/11 12:48 EST    5.69   5.26    3    8    6  34.5  44.1 1025.3 -9.9 -9.999 -99.9 -99.99 -9.99
2019/12/11 12:54 EST    5.49   5.02    2   11    3  34.5  44.2 1025.2 -9.9 -9.999 -99.9 -99.99 -9.99
2019/12/11 13:00 EST    5.29   4.78    0  309    2  34.7  44.1 1025.3 -9.9 -9.999 -99.9 -99.99 -9.99
2019/12/11 13:06 EST    5.08   4.54    3   27    4  35.2  44.2 1025.3 -9.9 -9.999 -99.9 -99.99 -9.99
2019/12/11 13:12 EST    4.87   4.29    4  357    4  34.7  44.2 1025.1 -9.9 -9.999 -99.9 -99.99 -9.99
2019/12/11 13:18 EST    4.64   4.04    3   18    4  34.7  44.2 1025.2 -9.9 -9.999 -99.9 -99.99 -9.99
2019/12/11 13:24 EST    4.42   3.78    2    6    3  34.7  44.2 1025.3 -9.9 -9.999 -99.9 -99.99 -9.99
2019/12/11 13:30 EST    4.19   3.53    0  256    3  34.7  44.2 1025.2 -9.9 -9.999 -99.9 -99.99 -9.99
2019/12/11 13:36 EST    3.95   3.28    1  246    3  35.1  44.2 1025.2 -9.9 -9.999 -99.9 -99.99 -9.99
2019/12/11 13:42 EST    3.72   3.03    1  181    3  35.1  44.2 1025.1 -9.9 -9.999 -99.9 -99.99 -9.99
2019/12/11 13:48 EST    3.48   2.78    2  201    3  35.1  44.2 1025.0 -9.9 -9.999 -99.9 -99.99 -9.99
2019/12/11 13:54 EST    3.24   2.56    4  206    6  35.4  44.2 1025.0 -9.9 -9.999 -99.9 -99.99 -9.99
2019/12/11 14:00 EST    3.01   2.33    4  206    5  35.2  44.2 1025.1 -9.9 -9.999 -99.9 -99.99 -9.99
2019/12/11 14:06 EST    2.78   2.11    3  199    6  35.1  44.2 1025.1 -9.9 -9.999 -99.9 -99.99 -9.99
2019/12/11 14:12 EST    2.55   1.90    3  214    4  35.4  44.2 1025.0 -9.9 -9.999 -99.9 -99.99 -9.99
2019/12/11 14:18 EST    2.32   1.71    3  201    4  36.1  44.2 1024.9 -9.9 -9.999 -99.9 -99.99 -9.99
2019/12/11 14:24 EST    2.11   1.51    3  199    5  36.3  44.4 1024.9 -9.9 -9.999 -99.9 -99.99 -9.99
2019/12/11 14:30 EST    1.90   1.30    3  184    4  36.5  44.4 1025.0 -9.9 -9.999 -99.9 -99.99 -9.99
2019/12/11 14:36 EST    1.69   1.14    0  346    4  37.4  44.4 1025.1 -9.9 -9.999 -99.9 -99.99 -9.99
2019/12/11 14:42 EST    1.50   0.96    1  223    4  36.5  44.4 1025.1 -9.9 -9.999 -99.9 -99.99 -9.99
2019/12/11 14:48 EST    1.31   0.80    8  278   10  36.5  44.4 1025.1 -9.9 -9.999 -99.9 -99.99 -9.99
2019/12/11 14:54 EST    1.14   0.60    8  296   11  37.4  44.4 1025.0 -9.9 -9.999 -99.9 -99.99 -9.99
2019/12/11 15:00 EST    0.98   0.42   10  301   14  37.6  44.4 1025.0 -9.9 -9.999 -99.9 -99.99 -9.99
2019/12/11 15:06 EST    0.82   0.28   11  270   16  37.2  44.2 1025.0 -9.9 -9.999 -99.9 -99.99 -9.99
2019/12/11 15:12 EST    0.68   0.16   11  270   13  37.4  44.2 1025.1 -9.9 -9.999 -99.9 -99.99 -9.99
2019/12/11 15:18 EST    0.55   0.06   11  259   16  37.6  44.2 1025.1 -9.9 -9.999 -99.9 -99.99 -9.99
2019/12/11 15:24 EST    0.43  -0.02   11  261   15  37.6  44.2 1025.2 -9.9 -9.999 -99.9 -99.99 -9.99
2019/12/11 15:30 EST    0.32  -0.09   14  265   16  37.4  44.2 1025.3 -9.9 -9.999 -99.9 -99.99 -9.99
2019/12/11 15:36 EST    0.22  -0.15   12  278   16  37.4  44.2 1025.4 -9.9 -9.999 -99.9 -99.99 -9.99
2019/12/11 15:42 EST    0.13  -0.19   11  274   14  37.6  44.2 1025.3 -9.9 -9.999 -99.9 -99.99 -9.99
2019/12/11 15:48 EST    0.06  -0.21   14  280   16  37.6  44.2 1025.4 -9.9 -9.999 -99.9 -99.99 -9.99
2019/12/11 15:54 EST   -0.01  -0.22   10  286   14  37.4  44.2 1025.3 -9.9 -9.999 -99.9 -99.99 -9.99
2019/12/11 16:00 EST   -0.07  -0.25   14  299   16  37.4  44.2 1025.5 -9.9 -9.999 -99.9 -99.99 -9.99
2019/12/11 16:06 EST   -0.13  -0.25   15  297   18  37.8  44.2 1025.6 -9.9 -9.999 -99.9 -99.99 -9.99
2019/12/11 16:12 EST   -0.17  -0.26   15  295   17  37.9  44.2 1025.8 -9.9 -9.999 -99.9 -99.99 -9.99
2019/12/11 16:18 EST   -0.21  -0.28   13  293   17  37.9  44.2 1025.7 -9.9 -9.999 -99.9 -99.99 -9.99
2019/12/11 16:24 EST   -0.24  -0.29   14  298   20  37.9  44.2 1025.7 -9.9 -9.999 -99.9 -99.99 -9.99
2019/12/11 16:30 EST   -0.27  -0.34   15  292   18  38.1  44.2 1025.8 -9.9 -9.999 -99.9 -99.99 -9.99
2019/12/11 16:36 EST   -0.29  -0.37   14  293   17  37.6  44.2 1025.9 -9.9 -9.999 -99.9 -99.99 -9.99
2019/12/11 16:42 EST   -0.31  -0.41   12  301   17  37.9  44.2 1026.0 -9.9 -9.999 -99.9 -99.99 -9.99
2019/12/11 16:48 EST   -0.32  -0.45   18  308   21  38.3  44.2 1026.2 -9.9 -9.999 -99.9 -99.99 -9.99
2019/12/11 16:54 EST   -0.33  -0.52   18  309   21  37.9  44.1 1026.1 -9.9 -9.999 -99.9 -99.99 -9.99
2019/12/11 17:00 EST   -0.33  -0.57   16  309   20  38.1  44.1 1026.3 -9.9 -9.999 -99.9 -99.99 -9.99
2019/12/11 17:06 EST   -0.33  -0.64   17  299   21  37.9  44.1 1026.4 -9.9 -9.999 -99.9 -99.99 -9.99
2019/12/11 17:12 EST   -0.33  -0.68   16  304   24  37.9  44.1 1026.5 -9.9 -9.999 -99.9 -99.99 -9.99
2019/12/11 17:18 EST   -0.32  -0.72   16  300   24  37.9  44.1 1026.6 -9.9 -9.999 -99.9 -99.99 -9.99
2019/12/11 17:24 EST   -0.30  -0.75   19  308   24  38.1  44.1 1026.7 -9.9 -9.999 -99.9 -99.99 -9.99
2019/12/11 17:30 EST   -0.28  -0.79   16  294   23  38.1  43.9 1026.7 -9.9 -9.999 -99.9 -99.99 -9.99
2019/12/11 17:36 EST   -0.26  -0.80   21  294   25  38.3  44.1 1026.9 -9.9 -9.999 -99.9 -99.99 -9.99
2019/12/11 17:42 EST   -0.23  -0.81   21  295   25  38.1  43.9 1026.8 -9.9 -9.999 -99.9 -99.99 -9.99
2019/12/11 17:48 EST   -0.18  -0.81   22  303   25  38.1  43.9 1026.9 -9.9 -9.999 -99.9 -99.99 -9.99
2019/12/11 17:54 EST   -0.13  -0.79   21  302   26  38.1  43.9 1027.0 -9.9 -9.999 -99.9 -99.99 -9.99
2019/12/11 18:00 EST   -0.07  -0.73   22  304   26  38.1  43.9 1027.1 -9.9 -9.999 -99.9 -99.99 -9.99
2019/12/11 18:06 EST   -0.00  -0.72   17  311   23  38.1  43.9 1027.3 -9.9 -9.999 -99.9 -99.99 -9.99
2019/12/11 18:12 EST    0.08  -0.63   18  296   27  38.1  43.9 1027.4 -9.9 -9.999 -99.9 -99.99 -9.99
2019/12/11 18:18 EST    0.18  -0.56   17  297   26  37.9  43.9 1027.5 -9.9 -9.999 -99.9 -99.99 -9.99
2019/12/11 18:24 EST    0.28  -0.44   18  308   24  38.1  43.7 1027.7 -9.9 -9.999 -99.9 -99.99 -9.99
2019/12/11 18:30 EST    0.40  -0.30   17  310   21  37.9  43.7 1027.8 -9.9 -9.999 -99.9 -99.99 -9.99
2019/12/11 18:36 EST    0.54  -0.14   17  306   23  38.1  43.9 1028.0 -9.9 -9.999 -99.9 -99.99 -9.99
2019/12/11 18:42 EST    0.69   0.02   18  302   23  37.8  43.9 1028.1 -9.9 -9.999 -99.9 -99.99 -9.99
2019/12/11 18:48 EST    0.85   0.22   19  310   27  37.6  43.7 1028.0 -9.9 -9.999 -99.9 -99.99 -9.99
2019/12/11 18:54 EST    1.03   0.42   20  310   26  37.8  43.7 1028.1 -9.9 -9.999 -99.9 -99.99 -9.99
2019/12/11 19:00 EST    1.22   0.67   20  311   24  37.8  43.7 1028.2 -9.9 -9.999 -99.9 -99.99 -9.99
2019/12/11 19:06 EST    1.42   0.90   18  309   24  37.4  43.7 1028.4 -9.9 -9.999 -99.9 -99.99 -9.99
2019/12/11 19:12 EST    1.64   1.18   17  311   21  37.6  43.7 1028.5 -9.9 -9.999 -99.9 -99.99 -9.99
2019/12/11 19:18 EST    1.86   1.47   16  320   25  37.4  43.7 1028.5 -9.9 -9.999 -99.9 -99.99 -9.99
2019/12/11 19:24 EST    2.10   1.75   18  316   24  37.0  43.5 1028.6 -9.9 -9.999 -99.9 -99.99 -9.99
2019/12/11 19:30 EST    2.34   2.02   17  315   21  36.9  43.7 1028.7 -9.9 -9.999 -99.9 -99.99 -9.99
2019/12/11 19:36 EST    2.60   2.33   15  320   24  36.9  43.7 1028.8 -9.9 -9.999 -99.9 -99.99 -9.99
2019/12/11 19:42 EST    2.85   2.61   18  318   24  36.9  43.7 1028.8 -9.9 -9.999 -99.9 -99.99 -9.99
2019/12/11 19:48 EST    3.12   2.90   16  321   21  36.5  43.7 1028.7 -9.9 -9.999 -99.9 -99.99 -9.99
2019/12/11 19:54 EST    3.38   3.21   18  322   25  36.5  43.7 1028.9 -9.9 -9.999 -99.9 -99.99 -9.99
2019/12/11 20:00 EST    3.64   3.47   18  321   24  36.5  43.7 1028.9 -9.9 -9.999 -99.9 -99.99 -9.99
2019/12/11 20:06 EST    3.90   3.74   20  318   23  36.3  43.7 1028.9 -9.9 -9.999 -99.9 -99.99 -9.99
2019/12/11 20:12 EST    4.16   4.02   16  334   21  36.1  43.7 1028.9 -9.9 -9.999 -99.9 -99.99 -9.99
2019/12/11 20:18 EST    4.42   4.26   18  333   23  36.1  43.7 1029.1 -9.9 -9.999 -99.9 -99.99 -9.99
2019/12/11 20:24 EST    4.66   4.49   18  328   23  35.8  43.7 1029.1 -9.9 -9.999 -99.9 -99.99 -9.99
2019/12/11 20:30 EST    4.90   4.72   19  331   25  35.8  43.7 1029.2 -9.9 -9.999 -99.9 -99.99 -9.99
2019/12/11 20:36 EST    5.13   4.92   16  326   21  35.6  43.7 1029.4 -9.9 -9.999 -99.9 -99.99 -9.99
2019/12/11 20:42 EST    5.35   5.13   18  325   25  35.8  43.7 1029.4 -9.9 -9.999 -99.9 -99.99 -9.99
2019/12/11 20:48 EST    5.55   5.33   18  328   24  35.2  43.9 1029.4 -9.9 -9.999 -99.9 -99.99 -9.99
2019/12/11 20:54 EST    5.75   5.53   17  332   23  35.2  43.9 1029.5 -9.9 -9.999 -99.9 -99.99 -9.99
2019/12/11 21:00 EST    5.93   5.70   20  331   26  35.1  43.9 1029.5 -9.9 -9.999 -99.9 -99.99 -9.99
2019/12/11 21:06 EST    6.09   5.86   17  330   23  34.9  43.9 1029.6 -9.9 -9.999 -99.9 -99.99 -9.99
2019/12/11 21:12 EST    6.25   6.04   19  338   23  34.7  43.9 1029.7 -9.9 -9.999 -99.9 -99.99 -9.99
2019/12/11 21:18 EST    6.38   6.17   21  339   25  34.9  43.9 1029.9 -9.9 -9.999 -99.9 -99.99 -9.99
2019/12/11 21:24 EST    6.51   6.26   19  331   22  34.9  43.9 1029.9 -9.9 -9.999 -99.9 -99.99 -9.99
2019/12/11 21:30 EST    6.62   6.37   19  330   24  34.7  43.9 1030.1 -9.9 -9.999 -99.9 -99.99 -9.99
2019/12/11 21:36 EST    6.72   6.43   18  334   21  34.7  43.9 1030.2 -9.9 -9.999 -99.9 -99.99 -9.99
2019/12/11 21:42 EST    6.80   6.49   17  336   22  34.5  43.7 1030.2 -9.9 -9.999 -99.9 -99.99 -9.99
2019/12/11 21:48 EST    6.88   6.53   20  338   24  34.5  43.7 1030.3 -9.9 -9.999 -99.9 -99.99 -9.99
2019/12/11 21:54 EST    6.94   6.54   21  344   25  34.3  43.7 1030.4 -9.9 -9.999 -99.9 -99.99 -9.99
2019/12/11 22:00 EST    6.99   6.56   17  331   23  34.7  43.7 1030.6 -9.9 -9.999 -99.9 -99.99 -9.99
2019/12/11 22:06 EST    7.03   6.54   19  334   23  34.3  43.7 1030.7 -9.9 -9.999 -99.9 -99.99 -9.99
2019/12/11 22:12 EST    7.07   6.53   18  331   21  34.2  43.7 1030.8 -9.9 -9.999 -99.9 -99.99 -9.99
2019/12/11 22:18 EST    7.09   6.52   19  346   24  34.0  43.7 1031.0 -9.9 -9.999 -99.9 -99.99 -9.99
2019/12/11 22:24 EST    7.11   6.49   17  345   22  34.0  43.9 1031.1 -9.9 -9.999 -99.9 -99.99 -9.99
2019/12/11 22:30 EST    7.12   6.47   15  339   23  34.0  43.7 1031.2 -9.9 -9.999 -99.9 -99.99 -9.99
2019/12/11 22:36 EST    7.13   6.44   13  340   24  33.8  43.9 1031.4 -9.9 -9.999 -99.9 -99.99 -9.99
2019/12/11 22:42 EST    7.13   6.42   14  350   20  34.0  43.7 1031.6 -9.9 -9.999 -99.9 -99.99 -9.99
2019/12/11 22:48 EST    7.12   6.41   16  339   22  33.6  43.5 1031.7 -9.9 -9.999 -99.9 -99.99 -9.99
2019/12/11 22:54 EST    7.11   6.43   16  340   22  33.4  43.5 1031.8 -9.9 -9.999 -99.9 -99.99 -9.99
2019/12/11 23:00 EST    7.10   6.42   14  340   18  33.6  43.5 1032.0 -9.9 -9.999 -99.9 -99.99 -9.99
2019/12/11 23:06 EST    7.08   6.42   16  348   19  33.4  43.5 1032.1 -9.9 -9.999 -99.9 -99.99 -9.99
2019/12/11 23:12 EST    7.06   6.43   16  340   18  33.4  43.5 1032.2 -9.9 -9.999 -99.9 -99.99 -9.99
2019/12/11 23:18 EST    7.03   6.43   15  348   21  33.1  43.7 1032.1 -9.9 -9.999 -99.9 -99.99 -9.99
2019/12/11 23:24 EST    7.00   6.42   16  346   20  33.3  43.7 1032.3 -9.9 -9.999 -99.9 -99.99 -9.99
2019/12/11 23:30 EST    6.96   6.41   17  349   23  33.4  43.5 1032.4 -9.9 -9.999 -99.9 -99.99 -9.99
2019/12/11 23:36 EST    6.92   6.37   15  346   22  33.1  43.5 1032.4 -9.9 -9.999 -99.9 -99.99 -9.99
2019/12/11 23:42 EST    6.87   6.31   16  342   19  33.3  43.5 1032.5 -9.9 -9.999 -99.9 -99.99 -9.99
2019/12/11 23:48 EST    6.81   6.26   17  352   21  33.1  43.5 1032.7 -9.9 -9.999 -99.9 -99.99 -9.99
2019/12/11 23:54 EST    6.75   6.19   17  348   21  33.3  43.5 1032.8 -9.9 -9.999 -99.9 -99.99 -9.99
2019/12/12 00:00 EST    6.69   6.11   17  354   21  33.4  43.3 1032.9 -9.9 -9.999 -99.9 -99.99 -9.99
2019/12/12 00:06 EST    6.61   5.98   15  351   21  32.9  43.5 1032.9 -9.9 -9.999 -99.9 -99.99 -9.99
2019/12/12 00:12 EST    6.53   5.86   15  349   20  33.3  43.3 1033.2 -9.9 -9.999 -99.9 -99.99 -9.99
2019/12/12 00:18 EST    6.44   5.74   17  352   22  32.9  43.5 1033.6 -9.9 -9.999 -99.9 -99.99 -9.99
2019/12/12 00:24 EST    6.34   5.57   20  352   23  33.3  43.5 1033.6 -9.9 -9.999 -99.9 -99.99 -9.99
2019/12/12 00:30 EST    6.23   5.41   20    0   27  33.3  43.5 1033.5 -9.9 -9.999 -99.9 -99.99 -9.99
2019/12/12 00:36 EST    6.12   5.24   25  353   30  33.8  43.5 1033.5 -9.9 -9.999 -99.9 -99.99 -9.99
2019/12/12 00:42 EST    5.99   5.06   21  359   29  33.3  43.5 1033.5 -9.9 -9.999 -99.9 -99.99 -9.99
2019/12/12 00:48 EST    5.86   4.84   20  356   26  33.4  43.3 1033.7 -9.9 -9.999 -99.9 -99.99 -9.99
2019/12/12 00:54 EST    5.71   4.65   18  353   23  33.3  43.2 1033.9 -9.9 -9.999 -99.9 -99.99 -9.99
2019/12/12 01:00 EST    5.56   4.45   17  358   21  33.3  43.2 1034.1 -9.9 -9.999 -99.9 -99.99 -9.99
2019/12/12 01:06 EST    5.40   4.25   17  358   21  32.7  43.2 1034.3 -9.9 -9.999 -99.9 -99.99 -9.99
2019/12/12 01:12 EST    5.23   4.04   16  359   20  32.5  43.2 1034.4 -9.9 -9.999 -99.9 -99.99 -9.99
2019/12/12 01:18 EST    5.05   3.81   13  357   17  32.5  43.2 1034.5 -9.9 -9.999 -99.9 -99.99 -9.99
2019/12/12 01:24 EST    4.86   3.59   13    3   16  32.5  43.2 1034.5 -9.9 -9.999 -99.9 -99.99 -9.99
2019/12/12 01:30 EST    4.66   3.38   11  350   15  32.4  43.2 1034.6 -9.9 -9.999 -99.9 -99.99 -9.99
2019/12/12 01:36 EST    4.46   3.18   11    2   14  32.4  43.2 1034.7 -9.9 -9.999 -99.9 -99.99 -9.99
2019/12/12 01:42 EST    4.26   2.95   12    7   15  32.0  43.2 1034.9 -9.9 -9.999 -99.9 -99.99 -9.99
2019/12/12 01:48 EST    4.04   2.74   14    2   17  32.0  43.2 1034.9 -9.9 -9.999 -99.9 -99.99 -9.99
2019/12/12 01:54 EST    3.83   2.53   13  360   16  32.0  43.2 1035.1 -9.9 -9.999 -99.9 -99.99 -9.99
2019/12/12 02:00 EST    3.61   2.32   12    4   17  32.0  43.0 1035.2 -9.9 -9.999 -99.9 -99.99 -9.99
2019/12/12 02:06 EST    3.39   2.13   11   23   15  32.0  43.2 1035.3 -9.9 -9.999 -99.9 -99.99 -9.99
2019/12/12 02:12 EST    3.17   1.93   14   22   17  31.6  43.0 1035.6 -9.9 -9.999 -99.9 -99.99 -9.99
2019/12/12 02:18 EST    2.95   1.75   14   30   17  31.5  43.2 1035.7 -9.9 -9.999 -99.9 -99.99 -9.99
2019/12/12 02:24 EST    2.74   1.56   14   28   17  31.1  43.2 1035.8 -9.9 -9.999 -99.9 -99.99 -9.99
2019/12/12 02:30 EST    2.52   1.37   16   27   19  31.3  43.2 1035.8 -9.9 -9.999 -99.9 -99.99 -9.99
2019/12/12 02:36 EST    2.31   1.19   16   28   19  31.1  43.2 1035.9 -9.9 -9.999 -99.9 -99.99 -9.99
2019/12/12 02:42 EST    2.11   1.00   17   22   20  31.1  43.2 1036.1 -9.9 -9.999 -99.9 -99.99 -9.99
2019/12/12 02:48 EST    1.91   0.83   17    9   20  30.6  43.2 1036.2 -9.9 -9.999 -99.9 -99.99 -9.99
2019/12/12 02:54 EST    1.72   0.66   14   12   18  30.7  43.2 1036.6 -9.9 -9.999 -99.9 -99.99 -9.99
2019/12/12 03:00 EST    1.54   0.49   14   13   17  30.9  43.2 1036.9 -9.9 -9.999 -99.9 -99.99 -9.99
2019/12/12 03:06 EST    1.37   0.34   15   27   17  30.6  43.2 1037.1 -9.9 -9.999 -99.9 -99.99 -9.99
2019/12/12 03:12 EST    1.21   0.20   14   29   16  30.2  43.2 1037.2 -9.9 -9.999 -99.9 -99.99 -9.99
2019/12/12 03:18 EST    1.06   0.07   14   17   17  30.4  43.2 1037.3 -9.9 -9.999 -99.9 -99.99 -9.99
2019/12/12 03:24 EST    0.92  -0.04   16   15   17  29.8  43.2 1037.2 -9.9 -9.999 -99.9 -99.99 -9.99
2019/12/12 03:30 EST    0.79  -0.16   12   20   17  29.8  43.2 1037.2 -9.9 -9.999 -99.9 -99.99 -9.99
2019/12/12 03:36 EST    0.68  -0.27   13   22   17  29.5  43.2 1037.3 -9.9 -9.999 -99.9 -99.99 -9.99
2019/12/12 03:42 EST    0.57  -0.34   13   25   15  29.7  43.2 1037.3 -9.9 -9.999 -99.9 -99.99 -9.99
2019/12/12 03:48 EST    0.48  -0.40   13   22   16  29.5  43.2 1037.5 -9.9 -9.999 -99.9 -99.99 -9.99
2019/12/12 03:54 EST    0.40  -0.45   13   22   16  29.3  43.2 1037.5 -9.9 -9.999 -99.9 -99.99 -9.99
2019/12/12 04:00 EST    0.34  -0.47   13   21   16  29.3  43.2 1037.7 -9.9 -9.999 -99.9 -99.99 -9.99
2019/12/12 04:06 EST    0.28  -0.48   13   14   17  29.1  43.2 1037.9 -9.9 -9.999 -99.9 -99.99 -9.99
2019/12/12 04:12 EST    0.24  -0.49   14   19   15  29.1  43.0 1038.1 -9.9 -9.999 -99.9 -99.99 -9.99
2019/12/12 04:18 EST    0.20  -0.49   11   25   15  29.1  43.2 1038.0 -9.9 -9.999 -99.9 -99.99 -9.99
2019/12/12 04:24 EST    0.18  -0.49   12   13   16  29.3  43.0 1038.0 -9.9 -9.999 -99.9 -99.99 -9.99
2019/12/12 04:30 EST    0.16  -0.51   12   22   14  29.1  43.0 1038.2 -9.9 -9.999 -99.9 -99.99 -9.99
2019/12/12 04:36 EST    0.16  -0.50   12   18   16  29.1  43.0 1038.3 -9.9 -9.999 -99.9 -99.99 -9.99
2019/12/12 04:42 EST    0.16  -0.50   12   22   15  28.8  43.0 1038.4 -9.9 -9.999 -99.9 -99.99 -9.99
2019/12/12 04:48 EST    0.16  -0.51   13   11   16  28.8  42.8 1038.5 -9.9 -9.999 -99.9 -99.99 -9.99
2019/12/12 04:54 EST    0.18  -0.51   14    3   17  28.8  42.8 1038.7 -9.9 -9.999 -99.9 -99.99 -9.99
2019/12/12 05:00 EST    0.20  -0.52   15    4   19  28.8  42.6 1038.5 -9.9 -9.999 -99.9 -99.99 -9.99
2019/12/12 05:06 EST    0.22  -0.51   15    8   18  28.9  42.6 1038.7 -9.9 -9.999 -99.9 -99.99 -9.99
2019/12/12 05:12 EST    0.25  -0.52   14    6   18  28.9  42.4 1038.8 -9.9 -9.999 -99.9 -99.99 -9.99
2019/12/12 05:18 EST    0.28  -0.53   15    3   19  28.9  42.4 1038.9 -9.9 -9.999 -99.9 -99.99 -9.99
2019/12/12 05:24 EST    0.32  -0.53   16    8   21  28.9  42.3 1039.0 -9.9 -9.999 -99.9 -99.99 -9.99
2019/12/12 05:30 EST    0.36  -0.55   15    7   18  28.8  42.1 1039.0 -9.9 -9.999 -99.9 -99.99 -9.99
2019/12/12 05:36 EST    0.41  -0.53   13   11   18  28.6  42.1 1039.0 -9.9 -9.999 -99.9 -99.99 -9.99
2019/12/12 05:42 EST    0.46  -0.55   14    9   17  28.6  42.1 1039.1 -9.9 -9.999 -99.9 -99.99 -9.99
2019/12/12 05:48 EST    0.52  -0.54   13    7   17  28.8  42.1 1039.3 -9.9 -9.999 -99.9 -99.99 -9.99
2019/12/12 05:54 EST    0.58  -0.49   14    3   17  28.4  42.1 1039.5 -9.9 -9.999 -99.9 -99.99 -9.99
2019/12/12 06:00 EST    0.64  -0.45   14   10   17  28.4  42.1 1039.6 -9.9 -9.999 -99.9 -99.99 -9.99
2019/12/12 06:06 EST    0.72  -0.39   14    6   17  28.4  42.3 1039.6 -9.9 -9.999 -99.9 -99.99 -9.99
2019/12/12 06:12 EST    0.80  -0.33   14    4   17  28.0  42.3 1039.8 -9.9 -9.999 -99.9 -99.99 -9.99
2019/12/12 06:18 EST    0.89  -0.24   13    5   16  28.0  42.3 1039.9 -9.9 -9.999 -99.9 -99.99 -9.99
2019/12/12 06:24 EST    0.98  -0.14   13    5   17  28.0  42.3 1040.0 -9.9 -9.999 -99.9 -99.99 -9.99
2019/12/12 06:30 EST    1.09  -0.03   13    5   17  28.0  42.3 1039.9 -9.9 -9.999 -99.9 -99.99 -9.99
2019/12/12 06:36 EST    1.21   0.12   13  356   16  27.9  42.1 1040.0 -9.9 -9.999 -99.9 -99.99 -9.99
2019/12/12 06:42 EST    1.33   0.27   16    1   18  28.2  42.3 1040.0 -9.9 -9.999 -99.9 -99.99 -9.99
2019/12/12 06:48 EST    1.47   0.45   14    2   17  27.7  42.1 1040.0 -9.9 -9.999 -99.9 -99.99 -9.99
2019/12/12 06:54 EST    1.63   0.64   13    3   18  27.7  42.3 1040.1 -9.9 -9.999 -99.9 -99.99 -9.99
2019/12/12 07:00 EST    1.79   0.84   13  359   18  27.5  42.1 1040.3 -9.9 -9.999 -99.9 -99.99 -9.99
2019/12/12 07:06 EST    1.97   1.08   14  358   16  27.7  42.1 1040.4 -9.9 -9.999 -99.9 -99.99 -9.99
2019/12/12 07:12 EST    2.15   1.34   14    2   18  27.7  42.1 1040.5 -9.9 -9.999 -99.9 -99.99 -9.99
2019/12/12 07:18 EST    2.35   1.59   14    9   17  28.2  42.1 1040.6 -9.9 -9.999 -99.9 -99.99 -9.99
2019/12/12 07:24 EST    2.57   1.86   13    3   17  27.7  42.6 1040.7 -9.9 -9.999 -99.9 -99.99 -9.99
2019/12/12 07:30 EST    2.79   2.14   11    6   15  27.5  42.8 1040.9 -9.9 -9.999 -99.9 -99.99 -9.99
2019/12/12 07:36 EST    3.02   2.43   12   12   15  27.5  42.8 1040.9 -9.9 -9.999 -99.9 -99.99 -9.99
2019/12/12 07:42 EST    3.27   2.72   11    6   15  27.7  42.6 1040.8 -9.9 -9.999 -99.9 -99.99 -9.99
2019/12/12 07:48 EST    3.52   3.01   13   14   18  27.9  42.6 1040.8 -9.9 -9.999 -99.9 -99.99 -9.99
2019/12/12 07:54 EST    3.78   3.29   11   17   16  27.3  42.6 1040.8 -9.9 -9.999 -99.9 -99.99 -9.99
2019/12/12 08:00 EST    4.04   3.56    7   27   12  27.7  42.6 1040.7 -9.9 -9.999 -99.9 -99.99 -9.99
2019/12/12 08:06 EST    4.30   3.84    8   24   12  27.9  42.4 1040.9 -9.9 -9.999 -99.9 -99.99 -9.99
2019/12/12 08:12 EST    4.57   4.11    8   36   12  27.3  42.4 1041.0 -9.9 -9.999 -99.9 -99.99 -9.99
2019/12/12 08:18 EST    4.84   4.37    9   32   12  27.5  42.6 1041.2 -9.9 -9.999 -99.9 -99.99 -9.99
2019/12/12 08:24 EST    5.11   4.63   11   10   12  27.3  42.6 1041.2 -9.9 -9.999 -99.9 -99.99 -9.99
2019/12/12 08:30 EST    5.37   4.88   10   22   14  27.5  42.6 1041.2 -9.9 -9.999 -99.9 -99.99 -9.99
2019/12/12 08:36 EST    5.63   5.12   10   23   15  27.9  42.6 1041.2 -9.9 -9.999 -99.9 -99.99 -9.99
2019/12/12 08:42 EST    5.88   5.34   10   23   15  27.7  42.6 1041.2 -9.9 -9.999 -99.9 -99.99 -9.99
2019/12/12 08:48 EST    6.12   5.55    8   28   10  27.9  42.6 1041.2 -9.9 -9.999 -99.9 -99.99 -9.99
2019/12/12 08:54 EST    6.35   5.76    7   21   11  27.7  42.6 1041.2 -9.9 -9.999 -99.9 -99.99 -9.99
2019/12/12 09:00 EST    6.57   5.94   10   30   12  27.9  42.6 1041.1 -9.9 -9.999 -99.9 -99.99 -9.99
2019/12/12 09:06 EST    6.78   6.12   11   39   14  28.0  42.6 1041.1 -9.9 -9.999 -99.9 -99.99 -9.99
2019/12/12 09:12 EST    6.98   6.30   11   39   15  28.2  42.6 1041.1 -9.9 -9.999 -99.9 -99.99 -9.99
2019/12/12 09:18 EST    7.16   6.46   12   30   15  28.6  42.6 1041.2 -9.9 -9.999 -99.9 -99.99 -9.99
2019/12/12 09:24 EST    7.32   6.60   10   27   13  28.2  42.6 1041.3 -9.9 -9.999 -99.9 -99.99 -9.99
2019/12/12 09:30 EST    7.47   6.75   10   17   12  28.2  42.6 1041.5 -9.9 -9.999 -99.9 -99.99 -9.99
2019/12/12 09:36 EST    7.61   6.87   10   28   12  28.0  42.8 1041.4 -9.9 -9.999 -99.9 -99.99 -9.99
2019/12/12 09:42 EST    7.72   7.00   10   23   12  28.4  42.8 1041.4 -9.9 -9.999 -99.9 -99.99 -9.99
2019/12/12 09:48 EST    7.83   7.11   11   23   13  28.6  42.8 1041.5 -9.9 -9.999 -99.9 -99.99 -9.99
2019/12/12 09:54 EST    7.92   7.19   11   28   13  28.6  42.8 1041.4 -9.9 -9.999 -99.9 -99.99 -9.99
2019/12/12 10:00 EST    7.99   7.28    9   34   11  28.9  42.8 1041.6 -9.9 -9.999 -99.9 -99.99 -9.99
2019/12/12 10:06 EST    8.05   7.33    9   25   10  28.8  42.8 1041.6 -9.9 -9.999 -99.9 -99.99 -9.99
2019/12/12 10:12 EST    8.09   7.38    6   37    9  28.6  42.8 1041.6 -9.9 -9.999 -99.9 -99.99 -9.99
2019/12/12 10:18 EST    8.13   7.43    5   45    8  29.1  42.8 1041.6 -9.9 -9.999 -99.9 -99.99 -9.99
2019/12/12 10:24 EST    8.15   7.45    6   26    8  29.3  42.8 1041.5 -9.9 -9.999 -99.9 -99.99 -9.99
2019/12/12 10:30 EST    8.16   7.47    6   34    8  29.5  42.6 1041.5 -9.9 -9.999 -99.9 -99.99 -9.99
2019/12/12 10:36 EST    8.16   7.50    7   39   10  29.5  42.6 1041.6 -9.9 -9.999 -99.9 -99.99 -9.99
2019/12/12 10:42 EST    8.16   7.51    7   29   10  29.5  42.4 1041.5 -9.9 -9.999 -99.9 -99.99 -9.99
2019/12/12 10:48 EST    8.14   7.53    8   32   11  29.7  42.4 1041.6 -9.9 -9.999 -99.9 -99.99 -9.99
2019/12/12 10:54 EST    8.12   7.55    9   36   10  29.8  42.3 1041.5 -9.9 -9.999 -99.9 -99.99 -9.99
2019/12/12 11:00 EST    8.09   7.57    6   39   10  30.0  42.1 1041.5 -9.9 -9.999 -99.9 -99.99 -9.99
2019/12/12 11:06 EST    8.06   7.58    7   44   11  30.6  42.3 1041.6 -9.9 -9.999 -99.9 -99.99 -9.99
2019/12/12 11:12 EST    8.02   7.60    9   44   11  31.1  42.4 1041.6 -9.9 -9.999 -99.9 -99.99 -9.99
2019/12/12 11:18 EST    7.98   7.61    6   71   12  31.1  42.6 1041.5 -9.9 -9.999 -99.9 -99.99 -9.99
2019/12/12 11:24 EST    7.93   7.62    8   44   10  31.1  42.6 1041.5 -9.9 -9.999 -99.9 -99.99 -9.99
2019/12/12 11:30 EST    7.88   7.62   10   26   12  31.1  42.4 1041.3 -9.9 -9.999 -99.9 -99.99 -9.99
2019/12/12 11:36 EST    7.82   7.62    7   36   11  30.9  42.4 1041.1 -9.9 -9.999 -99.9 -99.99 -9.99
2019/12/12 11:42 EST    7.76   7.61    6   35   11  30.9  42.6 1041.0 -9.9 -9.999 -99.9 -99.99 -9.99
2019/12/12 11:48 EST    7.70   7.59    6   35   11  30.9  42.6 1040.8 -9.9 -9.999 -99.9 -99.99 -9.99
2019/12/12 11:54 EST    7.63   7.56    7   35    9  31.1  42.8 1040.6 -9.9 -9.999 -99.9 -99.99 -9.99
2019/12/12 12:00 EST    7.55   7.51    7   35    9  31.1  42.8 1040.6 -9.9 -9.999 -99.9 -99.99 -9.99
2019/12/12 12:06 EST    7.48   7.46    8   29    9  30.9  42.8 1040.5 -9.9 -9.999 -99.9 -99.99 -9.99
2019/12/12 12:12 EST    7.39   7.40    6   31    8  31.3  42.8 1040.5 -9.9 -9.999 -99.9 -99.99 -9.99
2019/12/12 12:18 EST    7.30   7.33    7   31    9  31.1  42.8 1040.5 -9.9 -9.999 -99.9 -99.99 -9.99
2019/12/12 12:24 EST    7.21   7.25    6   33    9  31.3  42.8 1040.5 -9.9 -9.999 -99.9 -99.99 -9.99
2019/12/12 12:30 EST    7.11   7.16    7   25    9  31.3  42.8 1040.4 -9.9 -9.999 -99.9 -99.99 -9.99
2019/12/12 12:36 EST    7.00   7.06    5   48    8  32.4  42.8 1040.4 -9.9 -9.999 -99.9 -99.99 -9.99
2019/12/12 12:42 EST    6.89   6.95    4   54    7  32.5  42.8 1040.4 -9.9 -9.999 -99.9 -99.99 -9.99
2019/12/12 12:48 EST    6.76   6.82    3   79    5  32.9  42.8 1040.4 -9.9 -9.999 -99.9 -99.99 -9.99
2019/12/12 12:54 EST    6.63   6.69    3   73    5  33.1  42.8 1040.4 -9.9 -9.999 -99.9 -99.99 -9.99
2019/12/12 13:00 EST    6.49   6.53    3   53    6  33.3  42.8 1040.4 -9.9 -9.999 -99.9 -99.99 -9.99
2019/12/12 13:06 EST    6.34   6.37    4   45    6  33.1  42.6 1040.4 -9.9 -9.999 -99.9 -99.99 -9.99
2019/12/12 13:12 EST    6.19   6.19    1   24    4  33.8  42.6 1040.4 -9.9 -9.999 -99.9 -99.99 -9.99
2019/12/12 13:18 EST    6.02   6.00    1   91    4  33.8  42.8 1040.3 -9.9 -9.999 -99.9 -99.99 -9.99
2019/12/12 13:24 EST    5.85   5.80    2  355    2  33.3  42.8 1040.3 -9.9 -9.999 -99.9 -99.99 -9.99
2019/12/12 13:30 EST    5.67   5.59    2   28    3  33.4  42.8 1040.4 -9.9 -9.999 -99.9 -99.99 -9.99
2019/12/12 13:36 EST    5.47   5.37    1  121    5  34.0  42.8 1040.3 -9.9 -9.999 -99.9 -99.99 -9.99
2019/12/12 13:42 EST    5.28   5.15    2  213    3  34.0  43.0 1040.3 -9.9 -9.999 -99.9 -99.99 -9.99
2019/12/12 13:48 EST    5.07   4.92    1  262    3  34.3  43.0 1040.2 -9.9 -9.999 -99.9 -99.99 -9.99
2019/12/12 13:54 EST    4.86   4.68    1  283    2  34.7  43.0 1040.1 -9.9 -9.999 -99.9 -99.99 -9.99
2019/12/12 14:00 EST    4.64   4.43    1  327    3  34.2  43.0 1040.1 -9.9 -9.999 -99.9 -99.99 -9.99
2019/12/12 14:06 EST    4.41   4.18    2  267    3  34.0  43.0 1040.0 -9.9 -9.999 -99.9 -99.99 -9.99
2019/12/12 14:12 EST    4.18   3.94    2  265    3  34.3  43.0 1040.0 -9.9 -9.999 -99.9 -99.99 -9.99
2019/12/12 14:18 EST    3.95   3.69    2  261    3  34.0  43.0 1039.9 -9.9 -9.999 -99.9 -99.99 -9.99
2019/12/12 14:24 EST    3.71   3.45    2  260    2  34.5  43.0 1039.9 -9.9 -9.999 -99.9 -99.99 -9.99
2019/12/12 14:30 EST    3.48   3.21    0  236    2  35.6  43.0 1040.1 -9.9 -9.999 -99.9 -99.99 -9.99
2019/12/12 14:36 EST    3.24   2.97    1  268    1  36.5  43.0 1040.0 -9.9 -9.999 -99.9 -99.99 -9.99
2019/12/12 14:42 EST    3.00   2.73    1  318    2  34.7  43.0 1040.0 -9.9 -9.999 -99.9 -99.99 -9.99
2019/12/12 14:48 EST    2.76   2.50    3  231    4  33.6  43.0 1040.0 -9.9 -9.999 -99.9 -99.99 -9.99
2019/12/12 14:54 EST    2.53   2.27    4  227    4  33.3  43.0 1039.9 -9.9 -9.999 -99.9 -99.99 -9.99
2019/12/12 15:00 EST    2.30   2.04    4  208    5  33.4  43.0 1040.0 -9.9 -9.999 -99.9 -99.99 -9.99
2019/12/12 15:06 EST    2.07   1.82    4  227    5  33.4  43.2 1039.9 -9.9 -9.999 -99.9 -99.99 -9.99
2019/12/12 15:12 EST    1.85   1.63    3  218    4  33.8  43.0 1039.9 -9.9 -9.999 -99.9 -99.99 -9.99
2019/12/12 15:18 EST    1.64   1.46    2  178    4  35.2  43.0 1039.9 -9.9 -9.999 -99.9 -99.99 -9.99
2019/12/12 15:24 EST    1.44   1.28    3  206    4  34.3  43.0 1040.0 -9.9 -9.999 -99.9 -99.99 -9.99
2019/12/12 15:30 EST    1.24   1.10    3  208    4  34.5  43.0 1040.1 -9.9 -9.999 -99.9 -99.99 -9.99
2019/12/12 15:36 EST    1.06   0.94    2  213    4  34.5  43.2 1039.9 -9.9 -9.999 -99.9 -99.99 -9.99
2019/12/12 15:42 EST    0.88   0.77    2  202    3  35.2  43.2 1040.0 -9.9 -9.999 -99.9 -99.99 -9.99
2019/12/12 15:48 EST    0.72   0.62    2  185    3  35.2  43.2 1039.9 -9.9 -9.999 -99.9 -99.99 -9.99
2019/12/12 15:54 EST    0.57   0.49    3  204    3  34.2  43.2 1039.9 -9.9 -9.999 -99.9 -99.99 -9.99
2019/12/12 16:00 EST    0.43   0.36    3  198    4  33.8  43.2 1039.9 -9.9 -9.999 -99.9 -99.99 -9.99
2019/12/12 16:06 EST    0.30   0.25    2  156    4  33.8  43.2 1039.9 -9.9 -9.999 -99.9 -99.99 -9.99
2019/12/12 16:12 EST    0.18   0.15    2  180    3  33.8  43.3 1039.8 -9.9 -9.999 -99.9 -99.99 -9.99
2019/12/12 16:18 EST    0.07   0.06    3  170    4  33.4  43.3 1039.9 -9.9 -9.999 -99.9 -99.99 -9.99
2019/12/12 16:24 EST   -0.02  -0.01    3  165    4  33.3  43.3 1039.9 -9.9 -9.999 -99.9 -99.99 -9.99
2019/12/12 16:30 EST   -0.11  -0.06    2  117    3  32.9  43.3 1040.0 -9.9 -9.999 -99.9 -99.99 -9.99
2019/12/12 16:36 EST   -0.18  -0.10    1  122    3  32.7  43.3 1039.9 -9.9 -9.999 -99.9 -99.99 -9.99
2019/12/12 16:42 EST   -0.24  -0.13    2  163    3  32.7  43.3 1040.0 -9.9 -9.999 -99.9 -99.99 -9.99
2019/12/12 16:48 EST   -0.30  -0.14    3  165    4  32.7  43.3 1040.0 -9.9 -9.999 -99.9 -99.99 -9.99
2019/12/12 16:54 EST   -0.34  -0.16    2  175    4  32.5  43.3 1040.1 -9.9 -9.999 -99.9 -99.99 -9.99
2019/12/12 17:00 EST   -0.38  -0.16    2  179    3  32.7  43.2 1040.2 -9.9 -9.999 -99.9 -99.99 -9.99
2019/12/12 17:06 EST   -0.41  -0.15    4  182    5  32.5  43.2 1040.1 -9.9 -9.999 -99.9 -99.99 -9.99
2019/12/12 17:12 EST   -0.43  -0.16    4  175    7  32.4  43.2 1040.1 -9.9 -9.999 -99.9 -99.99 -9.99
2019/12/12 17:18 EST   -0.44  -0.19    5  178    7  32.2  43.2 1040.1 -9.9 -9.999 -99.9 -99.99 -9.99
2019/12/12 17:24 EST   -0.45  -0.23    5  184    7  32.2  43.2 1040.1 -9.9 -9.999 -99.9 -99.99 -9.99
2019/12/12 17:30 EST   -0.46  -0.24    4  180    6  32.0  42.6 1040.1 -9.9 -9.999 -99.9 -99.99 -9.99
2019/12/12 17:36 EST   -0.46  -0.26    4  175    6  32.0  41.7 1040.1 -9.9 -9.999 -99.9 -99.99 -9.99
2019/12/12 17:42 EST   -0.45  -0.29    4  178    6  32.0  41.7 1040.2 -9.9 -9.999 -99.9 -99.99 -9.99
2019/12/12 17:48 EST   -0.44  -0.33    4  180    5  31.8  41.7 1040.2 -9.9 -9.999 -99.9 -99.99 -9.99
2019/12/12 17:54 EST   -0.43  -0.37    4  186    6  31.8  41.7 1040.3 -9.9 -9.999 -99.9 -99.99 -9.99
2019/12/12 18:00 EST   -0.41  -0.40    4  183    5  31.8  41.9 1040.3 -9.9 -9.999 -99.9 -99.99 -9.99
2019/12/12 18:06 EST   -0.39  -0.44    4  178    6  31.8  41.9 1040.2 -9.9 -9.999 -99.9 -99.99 -9.99
2019/12/12 18:12 EST   -0.36  -0.47    5  184    7  31.6  41.7 1040.2 -9.9 -9.999 -99.9 -99.99 -9.99
2019/12/12 18:18 EST   -0.32  -0.50    4  176    5  31.6  41.7 1040.1 -9.9 -9.999 -99.9 -99.99 -9.99
2019/12/12 18:24 EST   -0.28  -0.51    4  174    6  31.5  41.7 1040.0 -9.9 -9.999 -99.9 -99.99 -9.99
2019/12/12 18:30 EST   -0.24  -0.51    4  178    5  31.5  41.5 1039.9 -9.9 -9.999 -99.9 -99.99 -9.99
2019/12/12 18:36 EST   -0.18  -0.50    4  176    6  31.5  41.5 1040.0 -9.9 -9.999 -99.9 -99.99 -9.99
2019/12/12 18:42 EST   -0.12  -0.47    3  177    5  31.5  41.7 1039.9 -9.9 -9.999 -99.9 -99.99 -9.99
2019/12/12 18:48 EST   -0.04  -0.42    4  175    6  31.3  41.7 1039.9 -9.9 -9.999 -99.9 -99.99 -9.99
2019/12/12 18:54 EST    0.04  -0.35    3  178    5  31.5  41.7 1039.9 -9.9 -9.999 -99.9 -99.99 -9.99
2019/12/12 19:00 EST    0.14  -0.27    4  179    5  31.3  41.9 1039.7 -9.9 -9.999 -99.9 -99.99 -9.99
2019/12/12 19:06 EST    0.25  -0.15    4  178    6  31.3  41.9 1039.6 -9.9 -9.999 -99.9 -99.99 -9.99
2019/12/12 19:12 EST    0.36  -0.02    4  176    6  31.3  42.1 1039.6 -9.9 -9.999 -99.9 -99.99 -9.99
2019/12/12 19:18 EST    0.50   0.14    4  176    6  31.3  42.1 1039.8 -9.9 -9.999 -99.9 -99.99 -9.99
2019/12/12 19:24 EST    0.64   0.32    4  183    6  31.1  42.3 1039.8 -9.9 -9.999 -99.9 -99.99 -9.99
2019/12/12 19:30 EST    0.80   0.50    4  187    7  31.3  42.6 1039.9 -9.9 -9.999 -99.9 -99.99 -9.99
2019/12/12 19:36 EST    0.97   0.71    4  188    7  31.5  42.6 1040.0 -9.9 -9.999 -99.9 -99.99 -9.99
2019/12/12 19:42 EST    1.16   0.95    5  190    7  31.5  42.8 1039.9 -9.9 -9.999 -99.9 -99.99 -9.99
2019/12/12 19:48 EST    1.36   1.21    4  185    6  31.5  42.8 1039.9 -9.9 -9.999 -99.9 -99.99 -9.99
2019/12/12 19:54 EST    1.57   1.48    4  184    5  31.3  42.8 1039.8 -9.9 -9.999 -99.9 -99.99 -9.99
2019/12/12 20:00 EST    1.79   1.77    4  187    6  31.3  42.8 1039.7 -9.9 -9.999 -99.9 -99.99 -9.99
2019/12/12 20:06 EST    2.03   2.07    3  182    5  31.3  42.8 1039.8 -9.9 -9.999 -99.9 -99.99 -9.99
2019/12/12 20:12 EST    2.27   2.38    2  194    4  31.5  42.8 1039.8 -9.9 -9.999 -99.9 -99.99 -9.99
2019/12/12 20:18 EST    2.52   2.68    2  196    4  31.6  42.8 1039.7 -9.9 -9.999 -99.9 -99.99 -9.99
2019/12/12 20:24 EST    2.78   3.00    2  201    4  31.5  42.8 1039.7 -9.9 -9.999 -99.9 -99.99 -9.99
2019/12/12 20:30 EST    3.05   3.31    2  191    3  31.3  42.8 1039.6 -9.9 -9.999 -99.9 -99.99 -9.99
2019/12/12 20:36 EST    3.31   3.63    1  203    3  31.3  43.0 1039.7 -9.9 -9.999 -99.9 -99.99 -9.99
2019/12/12 20:42 EST    3.58   3.93    2  191    2  31.3  43.0 1039.7 -9.9 -9.999 -99.9 -99.99 -9.99
2019/12/12 20:48 EST    3.85   4.22    1  159    2  31.1  43.0 1039.6 -9.9 -9.999 -99.9 -99.99 -9.99
2019/12/12 20:54 EST    4.12   4.50    2  166    4  31.1  43.0 1039.6 -9.9 -9.999 -99.9 -99.99 -9.99
2019/12/12 21:00 EST    4.38   4.77    1  178    3  30.9  43.0 1039.6 -9.9 -9.999 -99.9 -99.99 -9.99
2019/12/12 21:06 EST    4.64   5.03    1  169    2  30.7  43.0 1039.5 -9.9 -9.999 -99.9 -99.99 -9.99
2019/12/12 21:12 EST    4.89   5.27    1  140    2  30.7  42.8 1039.4 -9.9 -9.999 -99.9 -99.99 -9.99
2019/12/12 21:18 EST    5.13   5.51    2  127    3  30.4  42.8 1039.4 -9.9 -9.999 -99.9 -99.99 -9.99
2019/12/12 21:24 EST    5.36   5.73    2  146    4  30.4  43.0 1039.4 -9.9 -9.999 -99.9 -99.99 -9.99
2019/12/12 21:30 EST    5.58   5.93    2  180    2  30.4  43.0 1039.4 -9.9 -9.999 -99.9 -99.99 -9.99
2019/12/12 21:36 EST    5.79   6.12    3  156    4  30.4  42.8 1039.4 -9.9 -9.999 -99.9 -99.99 -9.99
2019/12/12 21:42 EST    5.98   6.30    4  154    6  30.4  42.8 1039.4 -9.9 -9.999 -99.9 -99.99 -9.99
2019/12/12 21:48 EST    6.16   6.45    4  157    6  30.2  42.8 1039.2 -9.9 -9.999 -99.9 -99.99 -9.99
2019/12/12 21:54 EST    6.33   6.59    4  157    6  30.4  42.8 1039.1 -9.9 -9.999 -99.9 -99.99 -9.99
2019/12/12 22:00 EST    6.48   6.71    3  175    5  30.4  42.8 1039.2 -9.9 -9.999 -99.9 -99.99 -9.99
2019/12/12 22:06 EST    6.61   6.81    3  177    4  30.0  42.8 1039.1 -9.9 -9.999 -99.9 -99.99 -9.99
2019/12/12 22:12 EST    6.74   6.90    3  173    6  30.2  42.8 1039.0 -9.9 -9.999 -99.9 -99.99 -9.99
2019/12/12 22:18 EST    6.84   6.98    3  167    4  30.2  42.8 1038.9 -9.9 -9.999 -99.9 -99.99 -9.99
2019/12/12 22:24 EST    6.93   7.04    3  161    5  30.7  42.8 1038.9 -9.9 -9.999 -99.9 -99.99 -9.99
2019/12/12 22:30 EST    7.01   7.08    4  162    4  30.7  42.8 1038.7 -9.9 -9.999 -99.9 -99.99 -9.99
2019/12/12 22:36 EST    7.08   7.12    4  172    5  30.7  43.0 1038.8 -9.9 -9.999 -99.9 -99.99 -9.99
2019/12/12 22:42 EST    7.13   7.14    2  216    4  30.7  42.8 1038.8 -9.9 -9.999 -99.9 -99.99 -9.99
2019/12/12 22:48 EST    7.17   7.15    1  203    3  30.7  43.0 1038.7 -9.9 -9.999 -99.9 -99.99 -9.99
2019/12/12 22:54 EST    7.20   7.15    1  205    2  30.6  43.0 1038.6 -9.9 -9.999 -99.9 -99.99 -9.99
2019/12/12 23:00 EST    7.23   7.15    0  175    2  30.7  43.0 1038.5 -9.9 -9.999 -99.9 -99.99 -9.99
2019/12/12 23:06 EST    7.24   7.15    2  159    4  30.7  43.0 1038.2 -9.9 -9.999 -99.9 -99.99 -9.99
2019/12/12 23:12 EST    7.24   7.14    3  159    4  30.9  43.0 1038.0 -9.9 -9.999 -99.9 -99.99 -9.99
2019/12/12 23:18 EST    7.24   7.14    3  146    5  31.1  43.0 1037.9 -9.9 -9.999 -99.9 -99.99 -9.99
2019/12/12 23:24 EST    7.23   7.13    3  172    4  31.1  43.0 1037.8 -9.9 -9.999 -99.9 -99.99 -9.99
2019/12/12 23:30 EST    7.22   7.13    2  178    4  31.1  43.0 1037.9 -9.9 -9.999 -99.9 -99.99 -9.99
2019/12/12 23:36 EST    7.20   7.13    0  176    3  30.9  43.0 1037.8 -9.9 -9.999 -99.9 -99.99 -9.99
2019/12/12 23:42 EST    7.17   7.13    2  199    3  30.9  43.0 1037.6 -9.9 -9.999 -99.9 -99.99 -9.99
2019/12/12 23:48 EST    7.14   7.13    2  170    4  30.9  43.0 1037.5 -9.9 -9.999 -99.9 -99.99 -9.99
2019/12/12 23:54 EST    7.11   7.12    3  154    4  30.9  43.0 1037.2 -9.9 -9.999 -99.9 -99.99 -9.99
2019/12/13 00:00 EST    7.07   7.11    4  137    5  31.1  43.0 1037.2 -9.9 -9.999 -99.9 -99.99 -9.99
2019/12/13 00:06 EST    7.03   7.10    3  171    4  31.3  43.0 1037.1 -9.9 -9.999 -99.9 -99.99 -9.99
2019/12/13 00:12 EST    6.98   7.07    2  172    4  31.3  43.2 1036.9 -9.9 -9.999 -99.9 -99.99 -9.99
2019/12/13 00:18 EST    6.93   7.04    2  166    4  31.5  43.2 1036.9 -9.9 -9.999 -99.9 -99.99 -9.99
2019/12/13 00:24 EST    6.88   7.01    2  121    3  31.5  43.2 1037.0 -9.9 -9.999 -99.9 -99.99 -9.99
2019/12/13 00:30 EST    6.82   6.97    1  175    3  31.5  43.2 1036.9 -9.9 -9.999 -99.9 -99.99 -9.99
2019/12/13 00:36 EST    6.75   6.93    1  158    2  31.8  43.2 1036.8 -9.9 -9.999 -99.9 -99.99 -9.99
2019/12/13 00:42 EST    6.68   6.87    0  164    3  32.0  43.3 1036.7 -9.9 -9.999 -99.9 -99.99 -9.99
2019/12/13 00:48 EST    6.60   6.81    2  107    3  32.0  43.3 1036.6 -9.9 -9.999 -99.9 -99.99 -9.99
2019/12/13 00:54 EST    6.52   6.74    0    2    3  32.2  43.3 1036.5 -9.9 -9.999 -99.9 -99.99 -9.99
2019/12/13 01:00 EST    6.43   6.65    2   93    3  31.8  43.3 1036.4 -9.9 -9.999 -99.9 -99.99 -9.99
2019/12/13 01:06 EST    6.33   6.56    2  329    3  32.2  43.3 1036.3 -9.9 -9.999 -99.9 -99.99 -9.99
2019/12/13 01:12 EST    6.22   6.44    0  328    2  32.5  43.3 1036.2 -9.9 -9.999 -99.9 -99.99 -9.99
2019/12/13 01:18 EST    6.11   6.32    0   94    1  32.7  43.5 1036.1 -9.9 -9.999 -99.9 -99.99 -9.99
2019/12/13 01:24 EST    5.99   6.19    1  296    3  33.1  43.5 1036.1 -9.9 -9.999 -99.9 -99.99 -9.99
2019/12/13 01:30 EST    5.85   6.04    0  173    1  32.9  43.5 1035.9 -9.9 -9.999 -99.9 -99.99 -9.99
2019/12/13 01:36 EST    5.71   5.89    1   71    2  32.9  43.3 1036.0 -9.9 -9.999 -99.9 -99.99 -9.99
2019/12/13 01:42 EST    5.57   5.72    1   77    2  33.1  43.3 1035.9 -9.9 -9.999 -99.9 -99.99 -9.99
2019/12/13 01:48 EST    5.41   5.54    1   56    2  32.9  43.5 1036.0 -9.9 -9.999 -99.9 -99.99 -9.99
2019/12/13 01:54 EST    5.24   5.34    1   73    2  32.9  43.3 1035.8 -9.9 -9.999 -99.9 -99.99 -9.99
2019/12/13 02:00 EST    5.07   5.14    2   68    2  32.9  43.3 1035.9 -9.9 -9.999 -99.9 -99.99 -9.99
2019/12/13 02:06 EST    4.89   4.92    2   49    3  33.4  43.2 1035.8 -9.9 -9.999 -99.9 -99.99 -9.99
2019/12/13 02:12 EST    4.70   4.69    3   42    4  34.2  43.0 1035.8 -9.9 -9.999 -99.9 -99.99 -9.99
2019/12/13 02:18 EST    4.50   4.45    2   63    4  34.3  43.0 1035.8 -9.9 -9.999 -99.9 -99.99 -9.99
2019/12/13 02:24 EST    4.30   4.21    4   32    5  35.1  43.0 1035.6 -9.9 -9.999 -99.9 -99.99 -9.99
2019/12/13 02:30 EST    4.09   3.96    2  106    3  34.0  43.0 1035.5 -9.9 -9.999 -99.9 -99.99 -9.99
2019/12/13 02:36 EST    3.88   3.72    3  104    4  33.6  43.0 1035.1 -9.9 -9.999 -99.9 -99.99 -9.99
2019/12/13 02:42 EST    3.66   3.48    2   83    4  33.8  43.0 1035.0 -9.9 -9.999 -99.9 -99.99 -9.99
2019/12/13 02:48 EST    3.44   3.25    2   87    3  33.6  43.0 1034.8 -9.9 -9.999 -99.9 -99.99 -9.99
2019/12/13 02:54 EST    3.22   3.02    3   95    4  33.6  43.2 1034.7 -9.9 -9.999 -99.9 -99.99 -9.99
2019/12/13 03:00 EST    3.00   2.79    4  104    4  33.6  43.0 1034.6 -9.9 -9.999 -99.9 -99.99 -9.99
2019/12/13 03:06 EST    2.78   2.58    4  105    5  33.3  43.2 1034.6 -9.9 -9.999 -99.9 -99.99 -9.99
2019/12/13 03:12 EST    2.57   2.38    3  104    5  33.1  43.2 1034.5 -9.9 -9.999 -99.9 -99.99 -9.99
2019/12/13 03:18 EST    2.35   2.18    3   84    5  33.3  43.2 1034.4 -9.9 -9.999 -99.9 -99.99 -9.99
2019/12/13 03:24 EST    2.14   1.99    3   86    6  33.3  43.2 1034.3 -9.9 -9.999 -99.9 -99.99 -9.99
2019/12/13 03:30 EST    1.94 -99.99 -999 -999 -999 -99.9 -99.9 -999.9 -9.9 -9.999 -99.9 -99.99 -9.99